<?xml version="1.0" encoding="UTF-8" standalone="no" ?>
<gpx xmlns="http://www.topografix.com/GPX/1/1" xmlns:xsi="http://www.w3.org/2001/XMLSchema-instance" xsi:schemaLocation="http://www.topografix.com/GPX/1/1 http://www.topografix.com/GPX/1/1/gpx.xsd" version="1.1" creator="VisuGPX - https://www.visugpx.com">
  <metadata>
    <name>Les coteaux entre Lacapelle-Biron et Saint-front</name>
    <desc><![CDATA[Un tracé avec plusieurs sentiers dérobées, anciens, le tout sans trop grande difficulté. ]]></desc>
  </metadata>
  <trk>
    <name><![CDATA[22-DEC-13 11:58:33]]></name>
    <trkseg>
      <trkpt lat="44.60036" lon="0.89475">
        <ele>175.1</ele>
        <time>2013-12-22T08:00:48Z</time>
      </trkpt>
      <trkpt lat="44.60038" lon="0.89476">
        <ele>174.62</ele>
        <time>2013-12-22T08:00:49Z</time>
      </trkpt>
      <trkpt lat="44.60055" lon="0.89492">
        <ele>174.14</ele>
        <time>2013-12-22T08:00:56Z</time>
      </trkpt>
      <trkpt lat="44.60065" lon="0.89508">
        <ele>174.14</ele>
        <time>2013-12-22T08:01:04Z</time>
      </trkpt>
      <trkpt lat="44.60065" lon="0.89521">
        <ele>174.62</ele>
        <time>2013-12-22T08:01:10Z</time>
      </trkpt>
      <trkpt lat="44.60063" lon="0.89544">
        <ele>175.58</ele>
        <time>2013-12-22T08:01:24Z</time>
      </trkpt>
      <trkpt lat="44.60065" lon="0.89548">
        <ele>174.62</ele>
        <time>2013-12-22T08:01:35Z</time>
      </trkpt>
      <trkpt lat="44.60067" lon="0.89547">
        <ele>175.58</ele>
        <time>2013-12-22T08:01:56Z</time>
      </trkpt>
      <trkpt lat="44.60066" lon="0.89558">
        <ele>175.58</ele>
        <time>2013-12-22T08:02:12Z</time>
      </trkpt>
      <trkpt lat="44.60062" lon="0.89586">
        <ele>176.54</ele>
        <time>2013-12-22T08:02:29Z</time>
      </trkpt>
      <trkpt lat="44.60062" lon="0.89594">
        <ele>175.58</ele>
        <time>2013-12-22T08:02:34Z</time>
      </trkpt>
      <trkpt lat="44.60062" lon="0.89599">
        <ele>176.06</ele>
        <time>2013-12-22T08:02:37Z</time>
      </trkpt>
      <trkpt lat="44.60063" lon="0.89608">
        <ele>176.54</ele>
        <time>2013-12-22T08:02:42Z</time>
      </trkpt>
      <trkpt lat="44.60064" lon="0.89633">
        <ele>180.38</ele>
        <time>2013-12-22T08:02:57Z</time>
      </trkpt>
      <trkpt lat="44.60064" lon="0.89641">
        <ele>180.87</ele>
        <time>2013-12-22T08:03:02Z</time>
      </trkpt>
      <trkpt lat="44.60064" lon="0.89654">
        <ele>182.31</ele>
        <time>2013-12-22T08:03:12Z</time>
      </trkpt>
      <trkpt lat="44.6006" lon="0.89671">
        <ele>185.19</ele>
        <time>2013-12-22T08:03:28Z</time>
      </trkpt>
      <trkpt lat="44.60058" lon="0.89674">
        <ele>185.19</ele>
        <time>2013-12-22T08:03:31Z</time>
      </trkpt>
      <trkpt lat="44.60055" lon="0.89677">
        <ele>185.19</ele>
        <time>2013-12-22T08:03:34Z</time>
      </trkpt>
      <trkpt lat="44.60048" lon="0.89684">
        <ele>183.75</ele>
        <time>2013-12-22T08:03:49Z</time>
      </trkpt>
      <trkpt lat="44.60049" lon="0.89687">
        <ele>183.75</ele>
        <time>2013-12-22T08:04:05Z</time>
      </trkpt>
      <trkpt lat="44.60046" lon="0.89694">
        <ele>179.9</ele>
        <time>2013-12-22T08:04:19Z</time>
      </trkpt>
      <trkpt lat="44.60039" lon="0.89717">
        <ele>179.42</ele>
        <time>2013-12-22T08:04:31Z</time>
      </trkpt>
      <trkpt lat="44.60035" lon="0.89754">
        <ele>178.46</ele>
        <time>2013-12-22T08:04:43Z</time>
      </trkpt>
      <trkpt lat="44.60029" lon="0.89802">
        <ele>173.17</ele>
        <time>2013-12-22T08:04:54Z</time>
      </trkpt>
      <trkpt lat="44.60027" lon="0.89816">
        <ele>171.73</ele>
        <time>2013-12-22T08:04:56Z</time>
      </trkpt>
      <trkpt lat="44.60023" lon="0.89833">
        <ele>169.81</ele>
        <time>2013-12-22T08:04:58Z</time>
      </trkpt>
      <trkpt lat="44.60016" lon="0.89856">
        <ele>168.37</ele>
        <time>2013-12-22T08:05:01Z</time>
      </trkpt>
      <trkpt lat="44.60016" lon="0.89884">
        <ele>164.04</ele>
        <time>2013-12-22T08:05:05Z</time>
      </trkpt>
      <trkpt lat="44.6002" lon="0.89897">
        <ele>163.08</ele>
        <time>2013-12-22T08:05:07Z</time>
      </trkpt>
      <trkpt lat="44.60023" lon="0.89928">
        <ele>159.72</ele>
        <time>2013-12-22T08:05:12Z</time>
      </trkpt>
      <trkpt lat="44.6001" lon="0.8998">
        <ele>158.27</ele>
        <time>2013-12-22T08:05:21Z</time>
      </trkpt>
      <trkpt lat="44.5998" lon="0.90065">
        <ele>157.31</ele>
        <time>2013-12-22T08:05:38Z</time>
      </trkpt>
      <trkpt lat="44.59955" lon="0.90131">
        <ele>159.24</ele>
        <time>2013-12-22T08:05:53Z</time>
      </trkpt>
      <trkpt lat="44.59966" lon="0.90188">
        <ele>163.08</ele>
        <time>2013-12-22T08:06:08Z</time>
      </trkpt>
      <trkpt lat="44.59987" lon="0.90249">
        <ele>167.89</ele>
        <time>2013-12-22T08:06:30Z</time>
      </trkpt>
      <trkpt lat="44.59991" lon="0.90308">
        <ele>172.69</ele>
        <time>2013-12-22T08:06:50Z</time>
      </trkpt>
      <trkpt lat="44.59997" lon="0.90363">
        <ele>175.58</ele>
        <time>2013-12-22T08:07:08Z</time>
      </trkpt>
      <trkpt lat="44.60002" lon="0.90424">
        <ele>176.54</ele>
        <time>2013-12-22T08:07:26Z</time>
      </trkpt>
      <trkpt lat="44.60007" lon="0.90499">
        <ele>178.46</ele>
        <time>2013-12-22T08:07:48Z</time>
      </trkpt>
      <trkpt lat="44.60005" lon="0.90568">
        <ele>182.79</ele>
        <time>2013-12-22T08:08:09Z</time>
      </trkpt>
      <trkpt lat="44.60008" lon="0.90611">
        <ele>188.56</ele>
        <time>2013-12-22T08:08:24Z</time>
      </trkpt>
      <trkpt lat="44.59996" lon="0.90651">
        <ele>193.84</ele>
        <time>2013-12-22T08:08:39Z</time>
      </trkpt>
      <trkpt lat="44.59978" lon="0.90682">
        <ele>192.88</ele>
        <time>2013-12-22T08:08:51Z</time>
      </trkpt>
      <trkpt lat="44.59962" lon="0.90747">
        <ele>190.96</ele>
        <time>2013-12-22T08:09:07Z</time>
      </trkpt>
      <trkpt lat="44.59951" lon="0.90824">
        <ele>192.88</ele>
        <time>2013-12-22T08:09:26Z</time>
      </trkpt>
      <trkpt lat="44.59943" lon="0.90879">
        <ele>194.8</ele>
        <time>2013-12-22T08:09:40Z</time>
      </trkpt>
      <trkpt lat="44.59931" lon="0.9092">
        <ele>197.69</ele>
        <time>2013-12-22T08:09:53Z</time>
      </trkpt>
      <trkpt lat="44.59903" lon="0.90955">
        <ele>201.53</ele>
        <time>2013-12-22T08:10:09Z</time>
      </trkpt>
      <trkpt lat="44.59874" lon="0.90988">
        <ele>205.86</ele>
        <time>2013-12-22T08:10:26Z</time>
      </trkpt>
      <trkpt lat="44.59843" lon="0.91029">
        <ele>210.19</ele>
        <time>2013-12-22T08:10:44Z</time>
      </trkpt>
      <trkpt lat="44.59818" lon="0.91075">
        <ele>214.99</ele>
        <time>2013-12-22T08:11:01Z</time>
      </trkpt>
      <trkpt lat="44.59798" lon="0.9112">
        <ele>218.84</ele>
        <time>2013-12-22T08:11:17Z</time>
      </trkpt>
      <trkpt lat="44.59792" lon="0.91131">
        <ele>220.28</ele>
        <time>2013-12-22T08:11:22Z</time>
      </trkpt>
      <trkpt lat="44.59782" lon="0.9113">
        <ele>221.24</ele>
        <time>2013-12-22T08:11:28Z</time>
      </trkpt>
      <trkpt lat="44.59776" lon="0.91115">
        <ele>221.24</ele>
        <time>2013-12-22T08:11:36Z</time>
      </trkpt>
      <trkpt lat="44.59766" lon="0.91065">
        <ele>221.24</ele>
        <time>2013-12-22T08:11:50Z</time>
      </trkpt>
      <trkpt lat="44.59743" lon="0.91021">
        <ele>225.09</ele>
        <time>2013-12-22T08:12:04Z</time>
      </trkpt>
      <trkpt lat="44.59722" lon="0.90983">
        <ele>227.01</ele>
        <time>2013-12-22T08:12:15Z</time>
      </trkpt>
      <trkpt lat="44.59697" lon="0.9094">
        <ele>229.89</ele>
        <time>2013-12-22T08:12:27Z</time>
      </trkpt>
      <trkpt lat="44.59667" lon="0.90912">
        <ele>229.89</ele>
        <time>2013-12-22T08:12:37Z</time>
      </trkpt>
      <trkpt lat="44.59637" lon="0.9089">
        <ele>227.97</ele>
        <time>2013-12-22T08:12:44Z</time>
      </trkpt>
      <trkpt lat="44.59584" lon="0.90875">
        <ele>224.12</ele>
        <time>2013-12-22T08:12:55Z</time>
      </trkpt>
      <trkpt lat="44.59565" lon="0.90854">
        <ele>223.16</ele>
        <time>2013-12-22T08:13:00Z</time>
      </trkpt>
      <trkpt lat="44.5956" lon="0.90843">
        <ele>222.2</ele>
        <time>2013-12-22T08:13:02Z</time>
      </trkpt>
      <trkpt lat="44.59532" lon="0.90828">
        <ele>221.24</ele>
        <time>2013-12-22T08:13:08Z</time>
      </trkpt>
      <trkpt lat="44.59492" lon="0.90801">
        <ele>223.64</ele>
        <time>2013-12-22T08:13:18Z</time>
      </trkpt>
      <trkpt lat="44.59463" lon="0.90764">
        <ele>227.01</ele>
        <time>2013-12-22T08:13:30Z</time>
      </trkpt>
      <trkpt lat="44.59434" lon="0.90718">
        <ele>228.45</ele>
        <time>2013-12-22T08:13:42Z</time>
      </trkpt>
      <trkpt lat="44.59403" lon="0.90668">
        <ele>227.01</ele>
        <time>2013-12-22T08:13:57Z</time>
      </trkpt>
      <trkpt lat="44.59377" lon="0.90628">
        <ele>225.57</ele>
        <time>2013-12-22T08:14:09Z</time>
      </trkpt>
      <trkpt lat="44.59352" lon="0.9059">
        <ele>227.01</ele>
        <time>2013-12-22T08:14:20Z</time>
      </trkpt>
      <trkpt lat="44.5935" lon="0.90586">
        <ele>227.01</ele>
        <time>2013-12-22T08:14:21Z</time>
      </trkpt>
      <trkpt lat="44.59336" lon="0.90544">
        <ele>222.68</ele>
        <time>2013-12-22T08:14:31Z</time>
      </trkpt>
      <trkpt lat="44.59305" lon="0.90517">
        <ele>226.53</ele>
        <time>2013-12-22T08:14:41Z</time>
      </trkpt>
      <trkpt lat="44.59267" lon="0.90514">
        <ele>228.45</ele>
        <time>2013-12-22T08:14:51Z</time>
      </trkpt>
      <trkpt lat="44.59239" lon="0.905">
        <ele>230.85</ele>
        <time>2013-12-22T08:15:01Z</time>
      </trkpt>
      <trkpt lat="44.59228" lon="0.90495">
        <ele>230.37</ele>
        <time>2013-12-22T08:15:10Z</time>
      </trkpt>
      <trkpt lat="44.59216" lon="0.90495">
        <ele>229.89</ele>
        <time>2013-12-22T08:15:13Z</time>
      </trkpt>
      <trkpt lat="44.59194" lon="0.90491">
        <ele>229.89</ele>
        <time>2013-12-22T08:15:18Z</time>
      </trkpt>
      <trkpt lat="44.59171" lon="0.90493">
        <ele>228.93</ele>
        <time>2013-12-22T08:15:23Z</time>
      </trkpt>
      <trkpt lat="44.59158" lon="0.90497">
        <ele>228.45</ele>
        <time>2013-12-22T08:15:26Z</time>
      </trkpt>
      <trkpt lat="44.5915" lon="0.90503">
        <ele>228.45</ele>
        <time>2013-12-22T08:15:28Z</time>
      </trkpt>
      <trkpt lat="44.59142" lon="0.90509">
        <ele>228.45</ele>
        <time>2013-12-22T08:15:30Z</time>
      </trkpt>
      <trkpt lat="44.5913" lon="0.90509">
        <ele>228.93</ele>
        <time>2013-12-22T08:15:35Z</time>
      </trkpt>
      <trkpt lat="44.59095" lon="0.90469">
        <ele>227.01</ele>
        <time>2013-12-22T08:15:47Z</time>
      </trkpt>
      <trkpt lat="44.59065" lon="0.90429">
        <ele>224.61</ele>
        <time>2013-12-22T08:15:57Z</time>
      </trkpt>
      <trkpt lat="44.59051" lon="0.90418">
        <ele>224.12</ele>
        <time>2013-12-22T08:16:01Z</time>
      </trkpt>
      <trkpt lat="44.59017" lon="0.90403">
        <ele>224.61</ele>
        <time>2013-12-22T08:16:12Z</time>
      </trkpt>
      <trkpt lat="44.59017" lon="0.904">
        <ele>220.28</ele>
        <time>2013-12-22T08:16:25Z</time>
      </trkpt>
      <trkpt lat="44.59017" lon="0.90395">
        <ele>219.8</ele>
        <time>2013-12-22T08:17:00Z</time>
      </trkpt>
      <trkpt lat="44.59014" lon="0.90397">
        <ele>222.68</ele>
        <time>2013-12-22T08:17:22Z</time>
      </trkpt>
      <trkpt lat="44.59011" lon="0.90399">
        <ele>218.84</ele>
        <time>2013-12-22T08:17:42Z</time>
      </trkpt>
      <trkpt lat="44.59011" lon="0.90399">
        <ele>215.47</ele>
        <time>2013-12-22T08:18:04Z</time>
      </trkpt>
      <trkpt lat="44.5901" lon="0.90399">
        <ele>218.84</ele>
        <time>2013-12-22T08:18:18Z</time>
      </trkpt>
      <trkpt lat="44.5901" lon="0.904">
        <ele>218.84</ele>
        <time>2013-12-22T08:18:33Z</time>
      </trkpt>
      <trkpt lat="44.59016" lon="0.90413">
        <ele>218.36</ele>
        <time>2013-12-22T08:18:38Z</time>
      </trkpt>
      <trkpt lat="44.59044" lon="0.90486">
        <ele>213.07</ele>
        <time>2013-12-22T08:18:48Z</time>
      </trkpt>
      <trkpt lat="44.59054" lon="0.90525">
        <ele>208.26</ele>
        <time>2013-12-22T08:18:52Z</time>
      </trkpt>
      <trkpt lat="44.59058" lon="0.90565">
        <ele>202.98</ele>
        <time>2013-12-22T08:18:56Z</time>
      </trkpt>
      <trkpt lat="44.59067" lon="0.90616">
        <ele>196.73</ele>
        <time>2013-12-22T08:19:01Z</time>
      </trkpt>
      <trkpt lat="44.59065" lon="0.90691">
        <ele>189.52</ele>
        <time>2013-12-22T08:19:07Z</time>
      </trkpt>
      <trkpt lat="44.59026" lon="0.90782">
        <ele>181.35</ele>
        <time>2013-12-22T08:19:15Z</time>
      </trkpt>
      <trkpt lat="44.5902" lon="0.90801">
        <ele>179.9</ele>
        <time>2013-12-22T08:19:17Z</time>
      </trkpt>
      <trkpt lat="44.59016" lon="0.90844">
        <ele>179.9</ele>
        <time>2013-12-22T08:19:26Z</time>
      </trkpt>
      <trkpt lat="44.58984" lon="0.90872">
        <ele>192.88</ele>
        <time>2013-12-22T08:19:39Z</time>
      </trkpt>
      <trkpt lat="44.58958" lon="0.9089">
        <ele>201.53</ele>
        <time>2013-12-22T08:19:50Z</time>
      </trkpt>
      <trkpt lat="44.58956" lon="0.90893">
        <ele>202.01</ele>
        <time>2013-12-22T08:19:51Z</time>
      </trkpt>
      <trkpt lat="44.58924" lon="0.90928">
        <ele>206.34</ele>
        <time>2013-12-22T08:20:06Z</time>
      </trkpt>
      <trkpt lat="44.58896" lon="0.90964">
        <ele>214.03</ele>
        <time>2013-12-22T08:20:21Z</time>
      </trkpt>
      <trkpt lat="44.5888" lon="0.91013">
        <ele>217.88</ele>
        <time>2013-12-22T08:20:34Z</time>
      </trkpt>
      <trkpt lat="44.58862" lon="0.91055">
        <ele>216.91</ele>
        <time>2013-12-22T08:20:46Z</time>
      </trkpt>
      <trkpt lat="44.58846" lon="0.91098">
        <ele>215.95</ele>
        <time>2013-12-22T08:21:00Z</time>
      </trkpt>
      <trkpt lat="44.58832" lon="0.9115">
        <ele>219.32</ele>
        <time>2013-12-22T08:21:15Z</time>
      </trkpt>
      <trkpt lat="44.58824" lon="0.91191">
        <ele>222.68</ele>
        <time>2013-12-22T08:21:26Z</time>
      </trkpt>
      <trkpt lat="44.58813" lon="0.91228">
        <ele>225.57</ele>
        <time>2013-12-22T08:21:36Z</time>
      </trkpt>
      <trkpt lat="44.58802" lon="0.91265">
        <ele>229.41</ele>
        <time>2013-12-22T08:21:47Z</time>
      </trkpt>
      <trkpt lat="44.58796" lon="0.91287">
        <ele>231.33</ele>
        <time>2013-12-22T08:21:53Z</time>
      </trkpt>
      <trkpt lat="44.58782" lon="0.91304">
        <ele>232.78</ele>
        <time>2013-12-22T08:21:59Z</time>
      </trkpt>
      <trkpt lat="44.5875" lon="0.91348">
        <ele>232.78</ele>
        <time>2013-12-22T08:22:14Z</time>
      </trkpt>
      <trkpt lat="44.5872" lon="0.91405">
        <ele>232.3</ele>
        <time>2013-12-22T08:22:31Z</time>
      </trkpt>
      <trkpt lat="44.58687" lon="0.91443">
        <ele>229.89</ele>
        <time>2013-12-22T08:22:46Z</time>
      </trkpt>
      <trkpt lat="44.58661" lon="0.9147">
        <ele>230.37</ele>
        <time>2013-12-22T08:22:59Z</time>
      </trkpt>
      <trkpt lat="44.58635" lon="0.91494">
        <ele>235.66</ele>
        <time>2013-12-22T08:23:11Z</time>
      </trkpt>
      <trkpt lat="44.58612" lon="0.91516">
        <ele>240.47</ele>
        <time>2013-12-22T08:23:21Z</time>
      </trkpt>
      <trkpt lat="44.58594" lon="0.91528">
        <ele>241.91</ele>
        <time>2013-12-22T08:23:29Z</time>
      </trkpt>
      <trkpt lat="44.58592" lon="0.91534">
        <ele>241.43</ele>
        <time>2013-12-22T08:23:33Z</time>
      </trkpt>
      <trkpt lat="44.5859" lon="0.91553">
        <ele>239.99</ele>
        <time>2013-12-22T08:23:47Z</time>
      </trkpt>
      <trkpt lat="44.58589" lon="0.91551">
        <ele>238.06</ele>
        <time>2013-12-22T08:24:12Z</time>
      </trkpt>
      <trkpt lat="44.5859" lon="0.91551">
        <ele>238.54</ele>
        <time>2013-12-22T08:24:35Z</time>
      </trkpt>
      <trkpt lat="44.58589" lon="0.91554">
        <ele>239.02</ele>
        <time>2013-12-22T08:24:37Z</time>
      </trkpt>
      <trkpt lat="44.58617" lon="0.91586">
        <ele>239.02</ele>
        <time>2013-12-22T08:24:51Z</time>
      </trkpt>
      <trkpt lat="44.58644" lon="0.91593">
        <ele>237.1</ele>
        <time>2013-12-22T08:24:58Z</time>
      </trkpt>
      <trkpt lat="44.58677" lon="0.91595">
        <ele>235.18</ele>
        <time>2013-12-22T08:25:05Z</time>
      </trkpt>
      <trkpt lat="44.58716" lon="0.91563">
        <ele>233.26</ele>
        <time>2013-12-22T08:25:15Z</time>
      </trkpt>
      <trkpt lat="44.58733" lon="0.91544">
        <ele>232.78</ele>
        <time>2013-12-22T08:25:20Z</time>
      </trkpt>
      <trkpt lat="44.58752" lon="0.91536">
        <ele>233.26</ele>
        <time>2013-12-22T08:25:25Z</time>
      </trkpt>
      <trkpt lat="44.58774" lon="0.91546">
        <ele>235.18</ele>
        <time>2013-12-22T08:25:31Z</time>
      </trkpt>
      <trkpt lat="44.58788" lon="0.91538">
        <ele>236.62</ele>
        <time>2013-12-22T08:25:35Z</time>
      </trkpt>
      <trkpt lat="44.5882" lon="0.91507">
        <ele>238.06</ele>
        <time>2013-12-22T08:25:46Z</time>
      </trkpt>
      <trkpt lat="44.5884" lon="0.91533">
        <ele>239.02</ele>
        <time>2013-12-22T08:25:56Z</time>
      </trkpt>
      <trkpt lat="44.58847" lon="0.91539">
        <ele>239.99</ele>
        <time>2013-12-22T08:25:59Z</time>
      </trkpt>
      <trkpt lat="44.58871" lon="0.91576">
        <ele>240.95</ele>
        <time>2013-12-22T08:26:13Z</time>
      </trkpt>
      <trkpt lat="44.589" lon="0.9162">
        <ele>239.99</ele>
        <time>2013-12-22T08:26:27Z</time>
      </trkpt>
      <trkpt lat="44.58928" lon="0.91638">
        <ele>240.47</ele>
        <time>2013-12-22T08:26:38Z</time>
      </trkpt>
      <trkpt lat="44.58948" lon="0.91644">
        <ele>240.47</ele>
        <time>2013-12-22T08:26:48Z</time>
      </trkpt>
      <trkpt lat="44.5898" lon="0.91632">
        <ele>239.02</ele>
        <time>2013-12-22T08:27:00Z</time>
      </trkpt>
      <trkpt lat="44.58996" lon="0.91597">
        <ele>236.14</ele>
        <time>2013-12-22T08:27:09Z</time>
      </trkpt>
      <trkpt lat="44.58979" lon="0.91573">
        <ele>237.58</ele>
        <time>2013-12-22T08:27:17Z</time>
      </trkpt>
      <trkpt lat="44.58976" lon="0.91567">
        <ele>238.06</ele>
        <time>2013-12-22T08:27:19Z</time>
      </trkpt>
      <trkpt lat="44.5898" lon="0.91553">
        <ele>237.1</ele>
        <time>2013-12-22T08:27:23Z</time>
      </trkpt>
      <trkpt lat="44.59002" lon="0.915">
        <ele>235.66</ele>
        <time>2013-12-22T08:27:36Z</time>
      </trkpt>
      <trkpt lat="44.59023" lon="0.91511">
        <ele>236.14</ele>
        <time>2013-12-22T08:27:45Z</time>
      </trkpt>
      <trkpt lat="44.59032" lon="0.91524">
        <ele>234.7</ele>
        <time>2013-12-22T08:27:49Z</time>
      </trkpt>
      <trkpt lat="44.59048" lon="0.91535">
        <ele>234.22</ele>
        <time>2013-12-22T08:27:53Z</time>
      </trkpt>
      <trkpt lat="44.5911" lon="0.91582">
        <ele>231.33</ele>
        <time>2013-12-22T08:28:07Z</time>
      </trkpt>
      <trkpt lat="44.59173" lon="0.91645">
        <ele>228.45</ele>
        <time>2013-12-22T08:28:21Z</time>
      </trkpt>
      <trkpt lat="44.59177" lon="0.91651">
        <ele>228.45</ele>
        <time>2013-12-22T08:28:22Z</time>
      </trkpt>
      <trkpt lat="44.59196" lon="0.91684">
        <ele>227.49</ele>
        <time>2013-12-22T08:28:27Z</time>
      </trkpt>
      <trkpt lat="44.59228" lon="0.91792">
        <ele>228.93</ele>
        <time>2013-12-22T08:28:42Z</time>
      </trkpt>
      <trkpt lat="44.59233" lon="0.91827">
        <ele>229.41</ele>
        <time>2013-12-22T08:28:49Z</time>
      </trkpt>
      <trkpt lat="44.59234" lon="0.91893">
        <ele>227.01</ele>
        <time>2013-12-22T08:29:02Z</time>
      </trkpt>
      <trkpt lat="44.59233" lon="0.91932">
        <ele>228.45</ele>
        <time>2013-12-22T08:29:14Z</time>
      </trkpt>
      <trkpt lat="44.59234" lon="0.91931">
        <ele>229.41</ele>
        <time>2013-12-22T08:29:21Z</time>
      </trkpt>
      <trkpt lat="44.59235" lon="0.91937">
        <ele>229.41</ele>
        <time>2013-12-22T08:29:29Z</time>
      </trkpt>
      <trkpt lat="44.59236" lon="0.91977">
        <ele>231.81</ele>
        <time>2013-12-22T08:29:39Z</time>
      </trkpt>
      <trkpt lat="44.59245" lon="0.92048">
        <ele>233.74</ele>
        <time>2013-12-22T08:29:52Z</time>
      </trkpt>
      <trkpt lat="44.59246" lon="0.92069">
        <ele>234.22</ele>
        <time>2013-12-22T08:29:55Z</time>
      </trkpt>
      <trkpt lat="44.59267" lon="0.92179">
        <ele>229.41</ele>
        <time>2013-12-22T08:30:07Z</time>
      </trkpt>
      <trkpt lat="44.59284" lon="0.92266">
        <ele>232.78</ele>
        <time>2013-12-22T08:30:19Z</time>
      </trkpt>
      <trkpt lat="44.59292" lon="0.92301">
        <ele>233.74</ele>
        <time>2013-12-22T08:30:25Z</time>
      </trkpt>
      <trkpt lat="44.59308" lon="0.92384">
        <ele>237.1</ele>
        <time>2013-12-22T08:30:41Z</time>
      </trkpt>
      <trkpt lat="44.59313" lon="0.92451">
        <ele>238.54</ele>
        <time>2013-12-22T08:30:55Z</time>
      </trkpt>
      <trkpt lat="44.59285" lon="0.92525">
        <ele>239.99</ele>
        <time>2013-12-22T08:31:12Z</time>
      </trkpt>
      <trkpt lat="44.59259" lon="0.92575">
        <ele>239.99</ele>
        <time>2013-12-22T08:31:26Z</time>
      </trkpt>
      <trkpt lat="44.59222" lon="0.92663">
        <ele>238.54</ele>
        <time>2013-12-22T08:31:43Z</time>
      </trkpt>
      <trkpt lat="44.59197" lon="0.92744">
        <ele>241.91</ele>
        <time>2013-12-22T08:32:01Z</time>
      </trkpt>
      <trkpt lat="44.59216" lon="0.92771">
        <ele>242.39</ele>
        <time>2013-12-22T08:32:10Z</time>
      </trkpt>
      <trkpt lat="44.59237" lon="0.9282">
        <ele>242.87</ele>
        <time>2013-12-22T08:32:23Z</time>
      </trkpt>
      <trkpt lat="44.59241" lon="0.92839">
        <ele>241.91</ele>
        <time>2013-12-22T08:32:27Z</time>
      </trkpt>
      <trkpt lat="44.59294" lon="0.92866">
        <ele>239.99</ele>
        <time>2013-12-22T08:32:40Z</time>
      </trkpt>
      <trkpt lat="44.59338" lon="0.92913">
        <ele>240.47</ele>
        <time>2013-12-22T08:32:54Z</time>
      </trkpt>
      <trkpt lat="44.59348" lon="0.92929">
        <ele>240.47</ele>
        <time>2013-12-22T08:32:58Z</time>
      </trkpt>
      <trkpt lat="44.59398" lon="0.92999">
        <ele>239.51</ele>
        <time>2013-12-22T08:33:16Z</time>
      </trkpt>
      <trkpt lat="44.59419" lon="0.93049">
        <ele>239.99</ele>
        <time>2013-12-22T08:33:28Z</time>
      </trkpt>
      <trkpt lat="44.59423" lon="0.93095">
        <ele>240.95</ele>
        <time>2013-12-22T08:33:39Z</time>
      </trkpt>
      <trkpt lat="44.59431" lon="0.93151">
        <ele>241.43</ele>
        <time>2013-12-22T08:33:53Z</time>
      </trkpt>
      <trkpt lat="44.59443" lon="0.93202">
        <ele>239.99</ele>
        <time>2013-12-22T08:34:06Z</time>
      </trkpt>
      <trkpt lat="44.59463" lon="0.93282">
        <ele>239.99</ele>
        <time>2013-12-22T08:34:23Z</time>
      </trkpt>
      <trkpt lat="44.59495" lon="0.93337">
        <ele>240.95</ele>
        <time>2013-12-22T08:34:37Z</time>
      </trkpt>
      <trkpt lat="44.59522" lon="0.93391">
        <ele>239.51</ele>
        <time>2013-12-22T08:34:50Z</time>
      </trkpt>
      <trkpt lat="44.59524" lon="0.93396">
        <ele>239.51</ele>
        <time>2013-12-22T08:34:51Z</time>
      </trkpt>
      <trkpt lat="44.5953" lon="0.93413">
        <ele>238.54</ele>
        <time>2013-12-22T08:34:54Z</time>
      </trkpt>
      <trkpt lat="44.5957" lon="0.9352">
        <ele>232.3</ele>
        <time>2013-12-22T08:35:07Z</time>
      </trkpt>
      <trkpt lat="44.59594" lon="0.9359">
        <ele>231.81</ele>
        <time>2013-12-22T08:35:16Z</time>
      </trkpt>
      <trkpt lat="44.59599" lon="0.93631">
        <ele>231.81</ele>
        <time>2013-12-22T08:35:21Z</time>
      </trkpt>
      <trkpt lat="44.59597" lon="0.93654">
        <ele>231.33</ele>
        <time>2013-12-22T08:35:24Z</time>
      </trkpt>
      <trkpt lat="44.59597" lon="0.93677">
        <ele>229.89</ele>
        <time>2013-12-22T08:35:27Z</time>
      </trkpt>
      <trkpt lat="44.59612" lon="0.93719">
        <ele>229.41</ele>
        <time>2013-12-22T08:35:34Z</time>
      </trkpt>
      <trkpt lat="44.59637" lon="0.93746">
        <ele>229.41</ele>
        <time>2013-12-22T08:35:41Z</time>
      </trkpt>
      <trkpt lat="44.59649" lon="0.93753">
        <ele>229.41</ele>
        <time>2013-12-22T08:35:44Z</time>
      </trkpt>
      <trkpt lat="44.59695" lon="0.93811">
        <ele>227.97</ele>
        <time>2013-12-22T08:35:56Z</time>
      </trkpt>
      <trkpt lat="44.59716" lon="0.93842">
        <ele>227.01</ele>
        <time>2013-12-22T08:36:01Z</time>
      </trkpt>
      <trkpt lat="44.59729" lon="0.93866">
        <ele>226.53</ele>
        <time>2013-12-22T08:36:05Z</time>
      </trkpt>
      <trkpt lat="44.59746" lon="0.93887">
        <ele>226.05</ele>
        <time>2013-12-22T08:36:10Z</time>
      </trkpt>
      <trkpt lat="44.59754" lon="0.93922">
        <ele>225.57</ele>
        <time>2013-12-22T08:36:16Z</time>
      </trkpt>
      <trkpt lat="44.59757" lon="0.93932">
        <ele>224.61</ele>
        <time>2013-12-22T08:36:18Z</time>
      </trkpt>
      <trkpt lat="44.59777" lon="0.93979">
        <ele>222.68</ele>
        <time>2013-12-22T08:36:28Z</time>
      </trkpt>
      <trkpt lat="44.59787" lon="0.94016">
        <ele>220.28</ele>
        <time>2013-12-22T08:36:35Z</time>
      </trkpt>
      <trkpt lat="44.59783" lon="0.94079">
        <ele>217.88</ele>
        <time>2013-12-22T08:36:47Z</time>
      </trkpt>
      <trkpt lat="44.59783" lon="0.94126">
        <ele>219.8</ele>
        <time>2013-12-22T08:36:58Z</time>
      </trkpt>
      <trkpt lat="44.59796" lon="0.94177">
        <ele>227.01</ele>
        <time>2013-12-22T08:37:10Z</time>
      </trkpt>
      <trkpt lat="44.59812" lon="0.94218">
        <ele>229.41</ele>
        <time>2013-12-22T08:37:22Z</time>
      </trkpt>
      <trkpt lat="44.59827" lon="0.9424">
        <ele>235.66</ele>
        <time>2013-12-22T08:37:31Z</time>
      </trkpt>
      <trkpt lat="44.5985" lon="0.94274">
        <ele>234.22</ele>
        <time>2013-12-22T08:37:42Z</time>
      </trkpt>
      <trkpt lat="44.59862" lon="0.94296">
        <ele>234.22</ele>
        <time>2013-12-22T08:37:46Z</time>
      </trkpt>
      <trkpt lat="44.59877" lon="0.94316">
        <ele>233.26</ele>
        <time>2013-12-22T08:37:50Z</time>
      </trkpt>
      <trkpt lat="44.59905" lon="0.94354">
        <ele>230.37</ele>
        <time>2013-12-22T08:38:01Z</time>
      </trkpt>
      <trkpt lat="44.59918" lon="0.94348">
        <ele>231.81</ele>
        <time>2013-12-22T08:38:08Z</time>
      </trkpt>
      <trkpt lat="44.59936" lon="0.94307">
        <ele>229.89</ele>
        <time>2013-12-22T08:38:21Z</time>
      </trkpt>
      <trkpt lat="44.59953" lon="0.94266">
        <ele>232.3</ele>
        <time>2013-12-22T08:38:33Z</time>
      </trkpt>
      <trkpt lat="44.59971" lon="0.94224">
        <ele>233.74</ele>
        <time>2013-12-22T08:38:44Z</time>
      </trkpt>
      <trkpt lat="44.59982" lon="0.94174">
        <ele>232.3</ele>
        <time>2013-12-22T08:38:55Z</time>
      </trkpt>
      <trkpt lat="44.59985" lon="0.94121">
        <ele>238.06</ele>
        <time>2013-12-22T08:39:07Z</time>
      </trkpt>
      <trkpt lat="44.59986" lon="0.94096">
        <ele>239.51</ele>
        <time>2013-12-22T08:39:13Z</time>
      </trkpt>
      <trkpt lat="44.60002" lon="0.94054">
        <ele>236.62</ele>
        <time>2013-12-22T08:39:25Z</time>
      </trkpt>
      <trkpt lat="44.60028" lon="0.94014">
        <ele>238.06</ele>
        <time>2013-12-22T08:39:36Z</time>
      </trkpt>
      <trkpt lat="44.60047" lon="0.93979">
        <ele>239.02</ele>
        <time>2013-12-22T08:39:48Z</time>
      </trkpt>
      <trkpt lat="44.60064" lon="0.93943">
        <ele>239.02</ele>
        <time>2013-12-22T08:39:57Z</time>
      </trkpt>
      <trkpt lat="44.60086" lon="0.93886">
        <ele>237.1</ele>
        <time>2013-12-22T08:40:10Z</time>
      </trkpt>
      <trkpt lat="44.60115" lon="0.93847">
        <ele>236.62</ele>
        <time>2013-12-22T08:40:21Z</time>
      </trkpt>
      <trkpt lat="44.60148" lon="0.93834">
        <ele>239.02</ele>
        <time>2013-12-22T08:40:33Z</time>
      </trkpt>
      <trkpt lat="44.60183" lon="0.93843">
        <ele>244.31</ele>
        <time>2013-12-22T08:40:44Z</time>
      </trkpt>
      <trkpt lat="44.60206" lon="0.93856">
        <ele>244.79</ele>
        <time>2013-12-22T08:40:51Z</time>
      </trkpt>
      <trkpt lat="44.60223" lon="0.93862">
        <ele>243.83</ele>
        <time>2013-12-22T08:40:55Z</time>
      </trkpt>
      <trkpt lat="44.60242" lon="0.93859">
        <ele>243.83</ele>
        <time>2013-12-22T08:40:59Z</time>
      </trkpt>
      <trkpt lat="44.60253" lon="0.93852">
        <ele>243.35</ele>
        <time>2013-12-22T08:41:01Z</time>
      </trkpt>
      <trkpt lat="44.60293" lon="0.93866">
        <ele>238.54</ele>
        <time>2013-12-22T08:41:08Z</time>
      </trkpt>
      <trkpt lat="44.60304" lon="0.93876">
        <ele>237.58</ele>
        <time>2013-12-22T08:41:10Z</time>
      </trkpt>
      <trkpt lat="44.60314" lon="0.93884">
        <ele>236.62</ele>
        <time>2013-12-22T08:41:12Z</time>
      </trkpt>
      <trkpt lat="44.60359" lon="0.93893">
        <ele>238.06</ele>
        <time>2013-12-22T08:41:21Z</time>
      </trkpt>
      <trkpt lat="44.60372" lon="0.93896">
        <ele>239.02</ele>
        <time>2013-12-22T08:41:24Z</time>
      </trkpt>
      <trkpt lat="44.60407" lon="0.93898">
        <ele>244.31</ele>
        <time>2013-12-22T08:41:36Z</time>
      </trkpt>
      <trkpt lat="44.60435" lon="0.93894">
        <ele>245.75</ele>
        <time>2013-12-22T08:41:45Z</time>
      </trkpt>
      <trkpt lat="44.60457" lon="0.93863">
        <ele>241.91</ele>
        <time>2013-12-22T08:41:55Z</time>
      </trkpt>
      <trkpt lat="44.60462" lon="0.93858">
        <ele>240.47</ele>
        <time>2013-12-22T08:41:57Z</time>
      </trkpt>
      <trkpt lat="44.60489" lon="0.93844">
        <ele>242.39</ele>
        <time>2013-12-22T08:42:07Z</time>
      </trkpt>
      <trkpt lat="44.60495" lon="0.93843">
        <ele>243.83</ele>
        <time>2013-12-22T08:42:18Z</time>
      </trkpt>
      <trkpt lat="44.60498" lon="0.93843">
        <ele>247.2</ele>
        <time>2013-12-22T08:42:38Z</time>
      </trkpt>
      <trkpt lat="44.60498" lon="0.93842">
        <ele>247.68</ele>
        <time>2013-12-22T08:42:53Z</time>
      </trkpt>
      <trkpt lat="44.60495" lon="0.93843">
        <ele>248.16</ele>
        <time>2013-12-22T08:43:20Z</time>
      </trkpt>
      <trkpt lat="44.60499" lon="0.93843">
        <ele>247.2</ele>
        <time>2013-12-22T08:43:38Z</time>
      </trkpt>
      <trkpt lat="44.60543" lon="0.93858">
        <ele>249.12</ele>
        <time>2013-12-22T08:43:52Z</time>
      </trkpt>
      <trkpt lat="44.60547" lon="0.93859">
        <ele>249.6</ele>
        <time>2013-12-22T08:43:53Z</time>
      </trkpt>
      <trkpt lat="44.60607" lon="0.93884">
        <ele>249.6</ele>
        <time>2013-12-22T08:44:08Z</time>
      </trkpt>
      <trkpt lat="44.60612" lon="0.93886">
        <ele>249.6</ele>
        <time>2013-12-22T08:44:21Z</time>
      </trkpt>
      <trkpt lat="44.60639" lon="0.93901">
        <ele>250.08</ele>
        <time>2013-12-22T08:44:32Z</time>
      </trkpt>
      <trkpt lat="44.60686" lon="0.93919">
        <ele>250.08</ele>
        <time>2013-12-22T08:44:46Z</time>
      </trkpt>
      <trkpt lat="44.60739" lon="0.9394">
        <ele>247.68</ele>
        <time>2013-12-22T08:44:59Z</time>
      </trkpt>
      <trkpt lat="44.60766" lon="0.9395">
        <ele>245.75</ele>
        <time>2013-12-22T08:45:05Z</time>
      </trkpt>
      <trkpt lat="44.60823" lon="0.94009">
        <ele>245.75</ele>
        <time>2013-12-22T08:45:21Z</time>
      </trkpt>
      <trkpt lat="44.60867" lon="0.94076">
        <ele>245.27</ele>
        <time>2013-12-22T08:45:37Z</time>
      </trkpt>
      <trkpt lat="44.60904" lon="0.94147">
        <ele>244.79</ele>
        <time>2013-12-22T08:45:51Z</time>
      </trkpt>
      <trkpt lat="44.60925" lon="0.94202">
        <ele>241.91</ele>
        <time>2013-12-22T08:46:00Z</time>
      </trkpt>
      <trkpt lat="44.6097" lon="0.94278">
        <ele>238.06</ele>
        <time>2013-12-22T08:46:13Z</time>
      </trkpt>
      <trkpt lat="44.61007" lon="0.94353">
        <ele>236.62</ele>
        <time>2013-12-22T08:46:25Z</time>
      </trkpt>
      <trkpt lat="44.61025" lon="0.9444">
        <ele>233.26</ele>
        <time>2013-12-22T08:46:35Z</time>
      </trkpt>
      <trkpt lat="44.61029" lon="0.94453">
        <ele>232.3</ele>
        <time>2013-12-22T08:46:37Z</time>
      </trkpt>
      <trkpt lat="44.61027" lon="0.94481">
        <ele>231.33</ele>
        <time>2013-12-22T08:46:42Z</time>
      </trkpt>
      <trkpt lat="44.61022" lon="0.94511">
        <ele>229.89</ele>
        <time>2013-12-22T08:46:48Z</time>
      </trkpt>
      <trkpt lat="44.61004" lon="0.94534">
        <ele>228.93</ele>
        <time>2013-12-22T08:46:53Z</time>
      </trkpt>
      <trkpt lat="44.60977" lon="0.94588">
        <ele>225.09</ele>
        <time>2013-12-22T08:47:01Z</time>
      </trkpt>
      <trkpt lat="44.60957" lon="0.94608">
        <ele>223.64</ele>
        <time>2013-12-22T08:47:07Z</time>
      </trkpt>
      <trkpt lat="44.6092" lon="0.94635">
        <ele>222.68</ele>
        <time>2013-12-22T08:47:17Z</time>
      </trkpt>
      <trkpt lat="44.60905" lon="0.9465">
        <ele>223.16</ele>
        <time>2013-12-22T08:47:21Z</time>
      </trkpt>
      <trkpt lat="44.60893" lon="0.94673">
        <ele>223.64</ele>
        <time>2013-12-22T08:47:26Z</time>
      </trkpt>
      <trkpt lat="44.60855" lon="0.94707">
        <ele>231.81</ele>
        <time>2013-12-22T08:47:37Z</time>
      </trkpt>
      <trkpt lat="44.60836" lon="0.94735">
        <ele>234.22</ele>
        <time>2013-12-22T08:47:44Z</time>
      </trkpt>
      <trkpt lat="44.60798" lon="0.94773">
        <ele>237.58</ele>
        <time>2013-12-22T08:47:55Z</time>
      </trkpt>
      <trkpt lat="44.60783" lon="0.94789">
        <ele>238.54</ele>
        <time>2013-12-22T08:47:59Z</time>
      </trkpt>
      <trkpt lat="44.60753" lon="0.94819">
        <ele>239.51</ele>
        <time>2013-12-22T08:48:08Z</time>
      </trkpt>
      <trkpt lat="44.60739" lon="0.94833">
        <ele>240.47</ele>
        <time>2013-12-22T08:48:12Z</time>
      </trkpt>
      <trkpt lat="44.6072" lon="0.94856">
        <ele>240.95</ele>
        <time>2013-12-22T08:48:18Z</time>
      </trkpt>
      <trkpt lat="44.60712" lon="0.94863">
        <ele>240.95</ele>
        <time>2013-12-22T08:48:20Z</time>
      </trkpt>
      <trkpt lat="44.60669" lon="0.94914">
        <ele>239.02</ele>
        <time>2013-12-22T08:48:33Z</time>
      </trkpt>
      <trkpt lat="44.60636" lon="0.94953">
        <ele>236.62</ele>
        <time>2013-12-22T08:48:44Z</time>
      </trkpt>
      <trkpt lat="44.60634" lon="0.94955">
        <ele>236.62</ele>
        <time>2013-12-22T08:48:45Z</time>
      </trkpt>
      <trkpt lat="44.60626" lon="0.94958">
        <ele>235.66</ele>
        <time>2013-12-22T08:48:50Z</time>
      </trkpt>
      <trkpt lat="44.60624" lon="0.94964">
        <ele>235.66</ele>
        <time>2013-12-22T08:49:01Z</time>
      </trkpt>
      <trkpt lat="44.60623" lon="0.94964">
        <ele>235.66</ele>
        <time>2013-12-22T08:49:19Z</time>
      </trkpt>
      <trkpt lat="44.60626" lon="0.94962">
        <ele>234.22</ele>
        <time>2013-12-22T08:49:38Z</time>
      </trkpt>
      <trkpt lat="44.60625" lon="0.94963">
        <ele>234.22</ele>
        <time>2013-12-22T08:49:50Z</time>
      </trkpt>
      <trkpt lat="44.60623" lon="0.94981">
        <ele>233.26</ele>
        <time>2013-12-22T08:49:56Z</time>
      </trkpt>
      <trkpt lat="44.60631" lon="0.95036">
        <ele>232.78</ele>
        <time>2013-12-22T08:50:10Z</time>
      </trkpt>
      <trkpt lat="44.60635" lon="0.95051">
        <ele>231.81</ele>
        <time>2013-12-22T08:50:13Z</time>
      </trkpt>
      <trkpt lat="44.60661" lon="0.95078">
        <ele>228.45</ele>
        <time>2013-12-22T08:50:20Z</time>
      </trkpt>
      <trkpt lat="44.60715" lon="0.95086">
        <ele>224.61</ele>
        <time>2013-12-22T08:50:29Z</time>
      </trkpt>
      <trkpt lat="44.60763" lon="0.9508">
        <ele>223.16</ele>
        <time>2013-12-22T08:50:36Z</time>
      </trkpt>
      <trkpt lat="44.60821" lon="0.95054">
        <ele>220.28</ele>
        <time>2013-12-22T08:50:43Z</time>
      </trkpt>
      <trkpt lat="44.60858" lon="0.95063">
        <ele>217.4</ele>
        <time>2013-12-22T08:50:47Z</time>
      </trkpt>
      <trkpt lat="44.60894" lon="0.9509">
        <ele>214.51</ele>
        <time>2013-12-22T08:50:51Z</time>
      </trkpt>
      <trkpt lat="44.60919" lon="0.95124">
        <ele>212.11</ele>
        <time>2013-12-22T08:50:55Z</time>
      </trkpt>
      <trkpt lat="44.60929" lon="0.95157">
        <ele>208.26</ele>
        <time>2013-12-22T08:51:01Z</time>
      </trkpt>
      <trkpt lat="44.6092" lon="0.95166">
        <ele>206.34</ele>
        <time>2013-12-22T08:51:05Z</time>
      </trkpt>
      <trkpt lat="44.60903" lon="0.95176">
        <ele>205.38</ele>
        <time>2013-12-22T08:51:09Z</time>
      </trkpt>
      <trkpt lat="44.60884" lon="0.95194">
        <ele>203.94</ele>
        <time>2013-12-22T08:51:13Z</time>
      </trkpt>
      <trkpt lat="44.60869" lon="0.95222">
        <ele>200.57</ele>
        <time>2013-12-22T08:51:17Z</time>
      </trkpt>
      <trkpt lat="44.60857" lon="0.95262">
        <ele>195.77</ele>
        <time>2013-12-22T08:51:23Z</time>
      </trkpt>
      <trkpt lat="44.60852" lon="0.95279">
        <ele>193.84</ele>
        <time>2013-12-22T08:51:26Z</time>
      </trkpt>
      <trkpt lat="44.60844" lon="0.95294">
        <ele>192.4</ele>
        <time>2013-12-22T08:51:29Z</time>
      </trkpt>
      <trkpt lat="44.60821" lon="0.95321">
        <ele>190.48</ele>
        <time>2013-12-22T08:51:35Z</time>
      </trkpt>
      <trkpt lat="44.60804" lon="0.95341">
        <ele>189.52</ele>
        <time>2013-12-22T08:51:40Z</time>
      </trkpt>
      <trkpt lat="44.60791" lon="0.95366">
        <ele>192.4</ele>
        <time>2013-12-22T08:51:51Z</time>
      </trkpt>
      <trkpt lat="44.60786" lon="0.95379">
        <ele>197.21</ele>
        <time>2013-12-22T08:52:03Z</time>
      </trkpt>
      <trkpt lat="44.60772" lon="0.95393">
        <ele>200.57</ele>
        <time>2013-12-22T08:52:14Z</time>
      </trkpt>
      <trkpt lat="44.60766" lon="0.95398">
        <ele>201.53</ele>
        <time>2013-12-22T08:52:23Z</time>
      </trkpt>
      <trkpt lat="44.60755" lon="0.95405">
        <ele>202.98</ele>
        <time>2013-12-22T08:52:33Z</time>
      </trkpt>
      <trkpt lat="44.60744" lon="0.95415">
        <ele>204.42</ele>
        <time>2013-12-22T08:52:38Z</time>
      </trkpt>
      <trkpt lat="44.60719" lon="0.95453">
        <ele>208.74</ele>
        <time>2013-12-22T08:52:50Z</time>
      </trkpt>
      <trkpt lat="44.60694" lon="0.95496">
        <ele>208.26</ele>
        <time>2013-12-22T08:53:00Z</time>
      </trkpt>
      <trkpt lat="44.60684" lon="0.95515">
        <ele>207.3</ele>
        <time>2013-12-22T08:53:04Z</time>
      </trkpt>
      <trkpt lat="44.60657" lon="0.9557">
        <ele>204.42</ele>
        <time>2013-12-22T08:53:18Z</time>
      </trkpt>
      <trkpt lat="44.60636" lon="0.95601">
        <ele>202.98</ele>
        <time>2013-12-22T08:53:29Z</time>
      </trkpt>
      <trkpt lat="44.60626" lon="0.95615">
        <ele>203.94</ele>
        <time>2013-12-22T08:53:36Z</time>
      </trkpt>
      <trkpt lat="44.60615" lon="0.95637">
        <ele>204.42</ele>
        <time>2013-12-22T08:53:48Z</time>
      </trkpt>
      <trkpt lat="44.60614" lon="0.95642">
        <ele>203.94</ele>
        <time>2013-12-22T08:53:51Z</time>
      </trkpt>
      <trkpt lat="44.6061" lon="0.95677">
        <ele>201.05</ele>
        <time>2013-12-22T08:54:02Z</time>
      </trkpt>
      <trkpt lat="44.60611" lon="0.95688">
        <ele>198.65</ele>
        <time>2013-12-22T08:54:13Z</time>
      </trkpt>
      <trkpt lat="44.60612" lon="0.95692">
        <ele>200.09</ele>
        <time>2013-12-22T08:54:37Z</time>
      </trkpt>
      <trkpt lat="44.60608" lon="0.95691">
        <ele>202.01</ele>
        <time>2013-12-22T08:55:02Z</time>
      </trkpt>
      <trkpt lat="44.6061" lon="0.95695">
        <ele>201.05</ele>
        <time>2013-12-22T08:55:23Z</time>
      </trkpt>
      <trkpt lat="44.60609" lon="0.95695">
        <ele>200.57</ele>
        <time>2013-12-22T08:55:24Z</time>
      </trkpt>
      <trkpt lat="44.60586" lon="0.95701">
        <ele>195.28</ele>
        <time>2013-12-22T08:55:32Z</time>
      </trkpt>
      <trkpt lat="44.60582" lon="0.95705">
        <ele>193.36</ele>
        <time>2013-12-22T08:55:40Z</time>
      </trkpt>
      <trkpt lat="44.60582" lon="0.95703">
        <ele>192.88</ele>
        <time>2013-12-22T08:55:43Z</time>
      </trkpt>
      <trkpt lat="44.60567" lon="0.95717">
        <ele>192.88</ele>
        <time>2013-12-22T08:55:52Z</time>
      </trkpt>
      <trkpt lat="44.60535" lon="0.95716">
        <ele>188.56</ele>
        <time>2013-12-22T08:55:59Z</time>
      </trkpt>
      <trkpt lat="44.60504" lon="0.95688">
        <ele>179.42</ele>
        <time>2013-12-22T08:56:08Z</time>
      </trkpt>
      <trkpt lat="44.60494" lon="0.95698">
        <ele>177.5</ele>
        <time>2013-12-22T08:56:10Z</time>
      </trkpt>
      <trkpt lat="44.60481" lon="0.95713">
        <ele>174.14</ele>
        <time>2013-12-22T08:56:13Z</time>
      </trkpt>
      <trkpt lat="44.6047" lon="0.95733">
        <ele>170.29</ele>
        <time>2013-12-22T08:56:17Z</time>
      </trkpt>
      <trkpt lat="44.60465" lon="0.95735">
        <ele>169.33</ele>
        <time>2013-12-22T08:56:28Z</time>
      </trkpt>
      <trkpt lat="44.60465" lon="0.95734">
        <ele>168.85</ele>
        <time>2013-12-22T08:56:40Z</time>
      </trkpt>
      <trkpt lat="44.60464" lon="0.95733">
        <ele>169.33</ele>
        <time>2013-12-22T08:56:45Z</time>
      </trkpt>
      <trkpt lat="44.60459" lon="0.95726">
        <ele>168.85</ele>
        <time>2013-12-22T08:56:50Z</time>
      </trkpt>
      <trkpt lat="44.60453" lon="0.95713">
        <ele>167.41</ele>
        <time>2013-12-22T08:57:02Z</time>
      </trkpt>
      <trkpt lat="44.60452" lon="0.95712">
        <ele>166.93</ele>
        <time>2013-12-22T08:57:24Z</time>
      </trkpt>
      <trkpt lat="44.60451" lon="0.95711">
        <ele>168.37</ele>
        <time>2013-12-22T08:57:36Z</time>
      </trkpt>
      <trkpt lat="44.60451" lon="0.95712">
        <ele>168.37</ele>
        <time>2013-12-22T08:57:52Z</time>
      </trkpt>
      <trkpt lat="44.60436" lon="0.95702">
        <ele>167.89</ele>
        <time>2013-12-22T08:58:00Z</time>
      </trkpt>
      <trkpt lat="44.60394" lon="0.95723">
        <ele>166.93</ele>
        <time>2013-12-22T08:58:13Z</time>
      </trkpt>
      <trkpt lat="44.60383" lon="0.9573">
        <ele>166.45</ele>
        <time>2013-12-22T08:58:16Z</time>
      </trkpt>
      <trkpt lat="44.60345" lon="0.95778">
        <ele>165.48</ele>
        <time>2013-12-22T08:58:27Z</time>
      </trkpt>
      <trkpt lat="44.603" lon="0.95816">
        <ele>164.04</ele>
        <time>2013-12-22T08:58:38Z</time>
      </trkpt>
      <trkpt lat="44.60259" lon="0.95807">
        <ele>161.16</ele>
        <time>2013-12-22T08:58:47Z</time>
      </trkpt>
      <trkpt lat="44.60245" lon="0.95791">
        <ele>158.75</ele>
        <time>2013-12-22T08:58:51Z</time>
      </trkpt>
      <trkpt lat="44.60237" lon="0.95783">
        <ele>157.79</ele>
        <time>2013-12-22T08:58:53Z</time>
      </trkpt>
      <trkpt lat="44.60213" lon="0.95772">
        <ele>157.31</ele>
        <time>2013-12-22T08:58:58Z</time>
      </trkpt>
      <trkpt lat="44.60144" lon="0.95773">
        <ele>154.91</ele>
        <time>2013-12-22T08:59:09Z</time>
      </trkpt>
      <trkpt lat="44.60132" lon="0.95773">
        <ele>154.91</ele>
        <time>2013-12-22T08:59:11Z</time>
      </trkpt>
      <trkpt lat="44.60106" lon="0.9579">
        <ele>154.43</ele>
        <time>2013-12-22T08:59:16Z</time>
      </trkpt>
      <trkpt lat="44.60089" lon="0.95809">
        <ele>153.95</ele>
        <time>2013-12-22T08:59:20Z</time>
      </trkpt>
      <trkpt lat="44.60011" lon="0.95879">
        <ele>154.43</ele>
        <time>2013-12-22T08:59:37Z</time>
      </trkpt>
      <trkpt lat="44.59976" lon="0.95903">
        <ele>153.95</ele>
        <time>2013-12-22T08:59:44Z</time>
      </trkpt>
      <trkpt lat="44.59924" lon="0.95897">
        <ele>153.47</ele>
        <time>2013-12-22T08:59:54Z</time>
      </trkpt>
      <trkpt lat="44.59891" lon="0.95873">
        <ele>152.51</ele>
        <time>2013-12-22T09:00:01Z</time>
      </trkpt>
      <trkpt lat="44.59881" lon="0.95868">
        <ele>152.03</ele>
        <time>2013-12-22T09:00:03Z</time>
      </trkpt>
      <trkpt lat="44.59849" lon="0.95883">
        <ele>151.54</ele>
        <time>2013-12-22T09:00:11Z</time>
      </trkpt>
      <trkpt lat="44.59837" lon="0.95922">
        <ele>149.62</ele>
        <time>2013-12-22T09:00:20Z</time>
      </trkpt>
      <trkpt lat="44.59838" lon="0.95951">
        <ele>147.22</ele>
        <time>2013-12-22T09:00:26Z</time>
      </trkpt>
      <trkpt lat="44.59842" lon="0.95979">
        <ele>147.7</ele>
        <time>2013-12-22T09:00:35Z</time>
      </trkpt>
      <trkpt lat="44.59846" lon="0.9599">
        <ele>148.66</ele>
        <time>2013-12-22T09:00:43Z</time>
      </trkpt>
      <trkpt lat="44.59843" lon="0.95999">
        <ele>147.7</ele>
        <time>2013-12-22T09:00:47Z</time>
      </trkpt>
      <trkpt lat="44.59841" lon="0.96006">
        <ele>146.74</ele>
        <time>2013-12-22T09:00:50Z</time>
      </trkpt>
      <trkpt lat="44.59839" lon="0.96019">
        <ele>145.78</ele>
        <time>2013-12-22T09:00:54Z</time>
      </trkpt>
      <trkpt lat="44.59838" lon="0.96058">
        <ele>144.34</ele>
        <time>2013-12-22T09:01:07Z</time>
      </trkpt>
      <trkpt lat="44.59832" lon="0.96101">
        <ele>146.26</ele>
        <time>2013-12-22T09:01:22Z</time>
      </trkpt>
      <trkpt lat="44.59826" lon="0.96116">
        <ele>146.74</ele>
        <time>2013-12-22T09:01:29Z</time>
      </trkpt>
      <trkpt lat="44.598" lon="0.96141">
        <ele>146.26</ele>
        <time>2013-12-22T09:01:39Z</time>
      </trkpt>
      <trkpt lat="44.59776" lon="0.96142">
        <ele>144.82</ele>
        <time>2013-12-22T09:01:44Z</time>
      </trkpt>
      <trkpt lat="44.59729" lon="0.96156">
        <ele>142.41</ele>
        <time>2013-12-22T09:01:55Z</time>
      </trkpt>
      <trkpt lat="44.5972" lon="0.96159">
        <ele>140.01</ele>
        <time>2013-12-22T09:02:04Z</time>
      </trkpt>
      <trkpt lat="44.59718" lon="0.9616">
        <ele>140.97</ele>
        <time>2013-12-22T09:02:20Z</time>
      </trkpt>
      <trkpt lat="44.59717" lon="0.96163">
        <ele>141.93</ele>
        <time>2013-12-22T09:02:34Z</time>
      </trkpt>
      <trkpt lat="44.59719" lon="0.9616">
        <ele>140.49</ele>
        <time>2013-12-22T09:02:48Z</time>
      </trkpt>
      <trkpt lat="44.59719" lon="0.96161">
        <ele>140.01</ele>
        <time>2013-12-22T09:02:50Z</time>
      </trkpt>
      <trkpt lat="44.597" lon="0.96178">
        <ele>140.97</ele>
        <time>2013-12-22T09:03:02Z</time>
      </trkpt>
      <trkpt lat="44.59698" lon="0.96181">
        <ele>140.49</ele>
        <time>2013-12-22T09:03:07Z</time>
      </trkpt>
      <trkpt lat="44.59686" lon="0.9619">
        <ele>140.97</ele>
        <time>2013-12-22T09:03:21Z</time>
      </trkpt>
      <trkpt lat="44.59665" lon="0.96215">
        <ele>140.49</ele>
        <time>2013-12-22T09:03:35Z</time>
      </trkpt>
      <trkpt lat="44.59612" lon="0.96254">
        <ele>141.93</ele>
        <time>2013-12-22T09:03:51Z</time>
      </trkpt>
      <trkpt lat="44.59564" lon="0.96284">
        <ele>143.37</ele>
        <time>2013-12-22T09:04:05Z</time>
      </trkpt>
      <trkpt lat="44.59513" lon="0.96304">
        <ele>142.41</ele>
        <time>2013-12-22T09:04:18Z</time>
      </trkpt>
      <trkpt lat="44.59471" lon="0.96318">
        <ele>141.93</ele>
        <time>2013-12-22T09:04:29Z</time>
      </trkpt>
      <trkpt lat="44.59439" lon="0.96336">
        <ele>141.93</ele>
        <time>2013-12-22T09:04:41Z</time>
      </trkpt>
      <trkpt lat="44.59426" lon="0.96345">
        <ele>141.45</ele>
        <time>2013-12-22T09:04:48Z</time>
      </trkpt>
      <trkpt lat="44.59408" lon="0.96369">
        <ele>144.82</ele>
        <time>2013-12-22T09:05:00Z</time>
      </trkpt>
      <trkpt lat="44.59408" lon="0.96371">
        <ele>142.41</ele>
        <time>2013-12-22T09:05:09Z</time>
      </trkpt>
      <trkpt lat="44.59407" lon="0.96374">
        <ele>142.41</ele>
        <time>2013-12-22T09:05:35Z</time>
      </trkpt>
      <trkpt lat="44.59406" lon="0.96374">
        <ele>144.82</ele>
        <time>2013-12-22T09:06:02Z</time>
      </trkpt>
      <trkpt lat="44.59406" lon="0.96378">
        <ele>145.3</ele>
        <time>2013-12-22T09:06:33Z</time>
      </trkpt>
      <trkpt lat="44.59405" lon="0.96378">
        <ele>145.3</ele>
        <time>2013-12-22T09:06:42Z</time>
      </trkpt>
      <trkpt lat="44.59389" lon="0.9639">
        <ele>143.37</ele>
        <time>2013-12-22T09:06:49Z</time>
      </trkpt>
      <trkpt lat="44.59358" lon="0.96389">
        <ele>139.05</ele>
        <time>2013-12-22T09:06:58Z</time>
      </trkpt>
      <trkpt lat="44.59354" lon="0.96391">
        <ele>138.57</ele>
        <time>2013-12-22T09:06:59Z</time>
      </trkpt>
      <trkpt lat="44.59348" lon="0.96378">
        <ele>136.16</ele>
        <time>2013-12-22T09:07:04Z</time>
      </trkpt>
      <trkpt lat="44.59356" lon="0.96363">
        <ele>134.24</ele>
        <time>2013-12-22T09:07:07Z</time>
      </trkpt>
      <trkpt lat="44.59374" lon="0.96322">
        <ele>130.88</ele>
        <time>2013-12-22T09:07:13Z</time>
      </trkpt>
      <trkpt lat="44.5937" lon="0.963">
        <ele>127.03</ele>
        <time>2013-12-22T09:07:21Z</time>
      </trkpt>
      <trkpt lat="44.59366" lon="0.96306">
        <ele>126.55</ele>
        <time>2013-12-22T09:07:23Z</time>
      </trkpt>
      <trkpt lat="44.59322" lon="0.96372">
        <ele>125.59</ele>
        <time>2013-12-22T09:07:40Z</time>
      </trkpt>
      <trkpt lat="44.59291" lon="0.96418">
        <ele>124.63</ele>
        <time>2013-12-22T09:07:50Z</time>
      </trkpt>
      <trkpt lat="44.59278" lon="0.96437">
        <ele>124.15</ele>
        <time>2013-12-22T09:07:54Z</time>
      </trkpt>
      <trkpt lat="44.59262" lon="0.96444">
        <ele>123.19</ele>
        <time>2013-12-22T09:07:58Z</time>
      </trkpt>
      <trkpt lat="44.59224" lon="0.96432">
        <ele>124.15</ele>
        <time>2013-12-22T09:08:10Z</time>
      </trkpt>
      <trkpt lat="44.59194" lon="0.96455">
        <ele>125.59</ele>
        <time>2013-12-22T09:08:22Z</time>
      </trkpt>
      <trkpt lat="44.59186" lon="0.96485">
        <ele>124.15</ele>
        <time>2013-12-22T09:08:33Z</time>
      </trkpt>
      <trkpt lat="44.59186" lon="0.96488">
        <ele>124.15</ele>
        <time>2013-12-22T09:08:43Z</time>
      </trkpt>
      <trkpt lat="44.59192" lon="0.9649">
        <ele>122.22</ele>
        <time>2013-12-22T09:09:09Z</time>
      </trkpt>
      <trkpt lat="44.59192" lon="0.96481">
        <ele>123.19</ele>
        <time>2013-12-22T09:09:56Z</time>
      </trkpt>
      <trkpt lat="44.5919" lon="0.96476">
        <ele>123.67</ele>
        <time>2013-12-22T09:10:29Z</time>
      </trkpt>
      <trkpt lat="44.59192" lon="0.96486">
        <ele>126.55</ele>
        <time>2013-12-22T09:11:07Z</time>
      </trkpt>
      <trkpt lat="44.59192" lon="0.96485">
        <ele>131.36</ele>
        <time>2013-12-22T09:11:40Z</time>
      </trkpt>
      <trkpt lat="44.5919" lon="0.96489">
        <ele>130.4</ele>
        <time>2013-12-22T09:11:55Z</time>
      </trkpt>
      <trkpt lat="44.5918" lon="0.96524">
        <ele>126.07</ele>
        <time>2013-12-22T09:12:07Z</time>
      </trkpt>
      <trkpt lat="44.59152" lon="0.966">
        <ele>121.74</ele>
        <time>2013-12-22T09:12:18Z</time>
      </trkpt>
      <trkpt lat="44.59147" lon="0.96607">
        <ele>121.26</ele>
        <time>2013-12-22T09:12:19Z</time>
      </trkpt>
      <trkpt lat="44.59072" lon="0.96672">
        <ele>117.9</ele>
        <time>2013-12-22T09:12:32Z</time>
      </trkpt>
      <trkpt lat="44.59067" lon="0.96674">
        <ele>117.9</ele>
        <time>2013-12-22T09:12:33Z</time>
      </trkpt>
      <trkpt lat="44.58999" lon="0.96671">
        <ele>117.9</ele>
        <time>2013-12-22T09:12:47Z</time>
      </trkpt>
      <trkpt lat="44.58988" lon="0.96665">
        <ele>117.9</ele>
        <time>2013-12-22T09:12:49Z</time>
      </trkpt>
      <trkpt lat="44.58928" lon="0.96646">
        <ele>119.82</ele>
        <time>2013-12-22T09:13:02Z</time>
      </trkpt>
      <trkpt lat="44.58912" lon="0.96644">
        <ele>118.86</ele>
        <time>2013-12-22T09:13:05Z</time>
      </trkpt>
      <trkpt lat="44.58867" lon="0.96618">
        <ele>119.82</ele>
        <time>2013-12-22T09:13:17Z</time>
      </trkpt>
      <trkpt lat="44.58832" lon="0.96619">
        <ele>122.71</ele>
        <time>2013-12-22T09:13:28Z</time>
      </trkpt>
      <trkpt lat="44.58801" lon="0.96617">
        <ele>124.15</ele>
        <time>2013-12-22T09:13:37Z</time>
      </trkpt>
      <trkpt lat="44.58759" lon="0.96622">
        <ele>123.19</ele>
        <time>2013-12-22T09:13:50Z</time>
      </trkpt>
      <trkpt lat="44.5874" lon="0.96635">
        <ele>121.26</ele>
        <time>2013-12-22T09:13:55Z</time>
      </trkpt>
      <trkpt lat="44.58731" lon="0.96649">
        <ele>120.3</ele>
        <time>2013-12-22T09:13:58Z</time>
      </trkpt>
      <trkpt lat="44.58705" lon="0.96686">
        <ele>117.9</ele>
        <time>2013-12-22T09:14:06Z</time>
      </trkpt>
      <trkpt lat="44.58688" lon="0.96701">
        <ele>117.9</ele>
        <time>2013-12-22T09:14:10Z</time>
      </trkpt>
      <trkpt lat="44.58675" lon="0.96714">
        <ele>117.9</ele>
        <time>2013-12-22T09:14:14Z</time>
      </trkpt>
      <trkpt lat="44.58638" lon="0.9676">
        <ele>116.46</ele>
        <time>2013-12-22T09:14:24Z</time>
      </trkpt>
      <trkpt lat="44.58631" lon="0.96772">
        <ele>115.5</ele>
        <time>2013-12-22T09:14:26Z</time>
      </trkpt>
      <trkpt lat="44.58611" lon="0.96795">
        <ele>114.05</ele>
        <time>2013-12-22T09:14:31Z</time>
      </trkpt>
      <trkpt lat="44.58596" lon="0.96804">
        <ele>113.57</ele>
        <time>2013-12-22T09:14:34Z</time>
      </trkpt>
      <trkpt lat="44.58533" lon="0.96831">
        <ele>114.53</ele>
        <time>2013-12-22T09:14:47Z</time>
      </trkpt>
      <trkpt lat="44.58477" lon="0.96861">
        <ele>111.65</ele>
        <time>2013-12-22T09:14:58Z</time>
      </trkpt>
      <trkpt lat="44.58439" lon="0.9688">
        <ele>108.77</ele>
        <time>2013-12-22T09:15:06Z</time>
      </trkpt>
      <trkpt lat="44.58377" lon="0.9691">
        <ele>104.92</ele>
        <time>2013-12-22T09:15:18Z</time>
      </trkpt>
      <trkpt lat="44.58366" lon="0.96916">
        <ele>104.92</ele>
        <time>2013-12-22T09:15:20Z</time>
      </trkpt>
      <trkpt lat="44.58346" lon="0.96928">
        <ele>106.84</ele>
        <time>2013-12-22T09:15:28Z</time>
      </trkpt>
      <trkpt lat="44.58343" lon="0.96932">
        <ele>112.13</ele>
        <time>2013-12-22T09:15:39Z</time>
      </trkpt>
      <trkpt lat="44.58324" lon="0.96938">
        <ele>115.5</ele>
        <time>2013-12-22T09:15:47Z</time>
      </trkpt>
      <trkpt lat="44.58258" lon="0.96961">
        <ele>113.57</ele>
        <time>2013-12-22T09:15:59Z</time>
      </trkpt>
      <trkpt lat="44.58248" lon="0.96964">
        <ele>113.57</ele>
        <time>2013-12-22T09:16:01Z</time>
      </trkpt>
      <trkpt lat="44.58228" lon="0.9697">
        <ele>113.09</ele>
        <time>2013-12-22T09:16:05Z</time>
      </trkpt>
      <trkpt lat="44.58203" lon="0.96979">
        <ele>112.61</ele>
        <time>2013-12-22T09:16:10Z</time>
      </trkpt>
      <trkpt lat="44.5816" lon="0.97002">
        <ele>113.57</ele>
        <time>2013-12-22T09:16:19Z</time>
      </trkpt>
      <trkpt lat="44.58145" lon="0.97009">
        <ele>114.05</ele>
        <time>2013-12-22T09:16:22Z</time>
      </trkpt>
      <trkpt lat="44.58076" lon="0.96996">
        <ele>110.69</ele>
        <time>2013-12-22T09:16:35Z</time>
      </trkpt>
      <trkpt lat="44.58039" lon="0.96981">
        <ele>111.17</ele>
        <time>2013-12-22T09:16:45Z</time>
      </trkpt>
      <trkpt lat="44.58037" lon="0.96981">
        <ele>111.17</ele>
        <time>2013-12-22T09:16:46Z</time>
      </trkpt>
      <trkpt lat="44.58034" lon="0.9698">
        <ele>113.09</ele>
        <time>2013-12-22T09:17:02Z</time>
      </trkpt>
      <trkpt lat="44.58032" lon="0.9698">
        <ele>113.09</ele>
        <time>2013-12-22T09:17:25Z</time>
      </trkpt>
      <trkpt lat="44.58031" lon="0.96978">
        <ele>113.09</ele>
        <time>2013-12-22T09:17:44Z</time>
      </trkpt>
      <trkpt lat="44.58029" lon="0.96977">
        <ele>114.53</ele>
        <time>2013-12-22T09:18:08Z</time>
      </trkpt>
      <trkpt lat="44.58028" lon="0.96977">
        <ele>114.05</ele>
        <time>2013-12-22T09:18:27Z</time>
      </trkpt>
      <trkpt lat="44.58028" lon="0.96977">
        <ele>114.05</ele>
        <time>2013-12-22T09:18:35Z</time>
      </trkpt>
      <trkpt lat="44.58009" lon="0.96968">
        <ele>112.13</ele>
        <time>2013-12-22T09:18:44Z</time>
      </trkpt>
      <trkpt lat="44.57966" lon="0.9695">
        <ele>110.21</ele>
        <time>2013-12-22T09:18:57Z</time>
      </trkpt>
      <trkpt lat="44.57959" lon="0.9695">
        <ele>110.21</ele>
        <time>2013-12-22T09:18:59Z</time>
      </trkpt>
      <trkpt lat="44.57933" lon="0.96963">
        <ele>108.77</ele>
        <time>2013-12-22T09:19:07Z</time>
      </trkpt>
      <trkpt lat="44.57897" lon="0.96951">
        <ele>107.32</ele>
        <time>2013-12-22T09:19:22Z</time>
      </trkpt>
      <trkpt lat="44.57897" lon="0.96949">
        <ele>109.73</ele>
        <time>2013-12-22T09:19:38Z</time>
      </trkpt>
      <trkpt lat="44.57895" lon="0.96948">
        <ele>109.73</ele>
        <time>2013-12-22T09:20:20Z</time>
      </trkpt>
      <trkpt lat="44.57898" lon="0.96949">
        <ele>111.17</ele>
        <time>2013-12-22T09:20:58Z</time>
      </trkpt>
      <trkpt lat="44.57898" lon="0.96951">
        <ele>110.69</ele>
        <time>2013-12-22T09:21:45Z</time>
      </trkpt>
      <trkpt lat="44.57898" lon="0.9695">
        <ele>107.81</ele>
        <time>2013-12-22T09:22:27Z</time>
      </trkpt>
      <trkpt lat="44.57897" lon="0.96949">
        <ele>109.73</ele>
        <time>2013-12-22T09:23:03Z</time>
      </trkpt>
      <trkpt lat="44.57896" lon="0.96948">
        <ele>108.77</ele>
        <time>2013-12-22T09:23:45Z</time>
      </trkpt>
      <trkpt lat="44.57895" lon="0.96949">
        <ele>108.29</ele>
        <time>2013-12-22T09:24:16Z</time>
      </trkpt>
      <trkpt lat="44.57897" lon="0.9695">
        <ele>104.92</ele>
        <time>2013-12-22T09:25:09Z</time>
      </trkpt>
      <trkpt lat="44.57896" lon="0.96948">
        <ele>103.96</ele>
        <time>2013-12-22T09:25:45Z</time>
      </trkpt>
      <trkpt lat="44.57898" lon="0.96946">
        <ele>103.96</ele>
        <time>2013-12-22T09:26:24Z</time>
      </trkpt>
      <trkpt lat="44.57897" lon="0.96948">
        <ele>103.48</ele>
        <time>2013-12-22T09:27:12Z</time>
      </trkpt>
      <trkpt lat="44.57897" lon="0.96947">
        <ele>101.08</ele>
        <time>2013-12-22T09:27:53Z</time>
      </trkpt>
      <trkpt lat="44.57896" lon="0.96947">
        <ele>98.67</ele>
        <time>2013-12-22T09:28:26Z</time>
      </trkpt>
      <trkpt lat="44.57897" lon="0.96949">
        <ele>100.11</ele>
        <time>2013-12-22T09:29:06Z</time>
      </trkpt>
      <trkpt lat="44.57897" lon="0.96948">
        <ele>101.08</ele>
        <time>2013-12-22T09:29:54Z</time>
      </trkpt>
      <trkpt lat="44.57896" lon="0.96947">
        <ele>100.6</ele>
        <time>2013-12-22T09:30:43Z</time>
      </trkpt>
      <trkpt lat="44.57894" lon="0.96949">
        <ele>105.88</ele>
        <time>2013-12-22T09:31:26Z</time>
      </trkpt>
      <trkpt lat="44.57895" lon="0.96947">
        <ele>102.52</ele>
        <time>2013-12-22T09:32:18Z</time>
      </trkpt>
      <trkpt lat="44.57897" lon="0.96949">
        <ele>99.63</ele>
        <time>2013-12-22T09:33:08Z</time>
      </trkpt>
      <trkpt lat="44.57897" lon="0.96949">
        <ele>102.52</ele>
        <time>2013-12-22T09:33:57Z</time>
      </trkpt>
      <trkpt lat="44.57897" lon="0.96951">
        <ele>103</ele>
        <time>2013-12-22T09:34:26Z</time>
      </trkpt>
      <trkpt lat="44.57896" lon="0.96953">
        <ele>103.96</ele>
        <time>2013-12-22T09:34:40Z</time>
      </trkpt>
      <trkpt lat="44.57895" lon="0.96953">
        <ele>105.88</ele>
        <time>2013-12-22T09:35:04Z</time>
      </trkpt>
      <trkpt lat="44.57873" lon="0.96949">
        <ele>106.84</ele>
        <time>2013-12-22T09:35:15Z</time>
      </trkpt>
      <trkpt lat="44.57816" lon="0.96938">
        <ele>105.88</ele>
        <time>2013-12-22T09:35:30Z</time>
      </trkpt>
      <trkpt lat="44.57761" lon="0.96915">
        <ele>105.4</ele>
        <time>2013-12-22T09:35:45Z</time>
      </trkpt>
      <trkpt lat="44.57723" lon="0.96904">
        <ele>106.84</ele>
        <time>2013-12-22T09:35:58Z</time>
      </trkpt>
      <trkpt lat="44.57718" lon="0.96889">
        <ele>107.81</ele>
        <time>2013-12-22T09:36:02Z</time>
      </trkpt>
      <trkpt lat="44.57717" lon="0.96811">
        <ele>108.77</ele>
        <time>2013-12-22T09:36:15Z</time>
      </trkpt>
      <trkpt lat="44.57717" lon="0.96804">
        <ele>109.25</ele>
        <time>2013-12-22T09:36:16Z</time>
      </trkpt>
      <trkpt lat="44.57732" lon="0.96677">
        <ele>110.21</ele>
        <time>2013-12-22T09:36:33Z</time>
      </trkpt>
      <trkpt lat="44.57752" lon="0.96557">
        <ele>109.25</ele>
        <time>2013-12-22T09:36:50Z</time>
      </trkpt>
      <trkpt lat="44.57767" lon="0.96421">
        <ele>105.4</ele>
        <time>2013-12-22T09:37:06Z</time>
      </trkpt>
      <trkpt lat="44.57779" lon="0.96235">
        <ele>102.52</ele>
        <time>2013-12-22T09:37:26Z</time>
      </trkpt>
      <trkpt lat="44.5776" lon="0.96077">
        <ele>102.52</ele>
        <time>2013-12-22T09:37:44Z</time>
      </trkpt>
      <trkpt lat="44.57717" lon="0.95906">
        <ele>102.04</ele>
        <time>2013-12-22T09:38:04Z</time>
      </trkpt>
      <trkpt lat="44.57641" lon="0.95782">
        <ele>101.56</ele>
        <time>2013-12-22T09:38:22Z</time>
      </trkpt>
      <trkpt lat="44.5753" lon="0.95635">
        <ele>102.04</ele>
        <time>2013-12-22T09:38:43Z</time>
      </trkpt>
      <trkpt lat="44.57471" lon="0.9556">
        <ele>103</ele>
        <time>2013-12-22T09:38:57Z</time>
      </trkpt>
      <trkpt lat="44.57386" lon="0.95498">
        <ele>102.04</ele>
        <time>2013-12-22T09:39:16Z</time>
      </trkpt>
      <trkpt lat="44.57352" lon="0.95481">
        <ele>102.52</ele>
        <time>2013-12-22T09:39:28Z</time>
      </trkpt>
      <trkpt lat="44.57352" lon="0.9548">
        <ele>102.52</ele>
        <time>2013-12-22T09:39:29Z</time>
      </trkpt>
      <trkpt lat="44.57374" lon="0.95471">
        <ele>100.6</ele>
        <time>2013-12-22T09:39:41Z</time>
      </trkpt>
      <trkpt lat="44.57406" lon="0.95449">
        <ele>99.15</ele>
        <time>2013-12-22T09:39:54Z</time>
      </trkpt>
      <trkpt lat="44.5744" lon="0.95421">
        <ele>100.6</ele>
        <time>2013-12-22T09:40:06Z</time>
      </trkpt>
      <trkpt lat="44.57468" lon="0.95384">
        <ele>102.52</ele>
        <time>2013-12-22T09:40:18Z</time>
      </trkpt>
      <trkpt lat="44.57494" lon="0.95329">
        <ele>105.4</ele>
        <time>2013-12-22T09:40:34Z</time>
      </trkpt>
      <trkpt lat="44.5751" lon="0.95295">
        <ele>107.32</ele>
        <time>2013-12-22T09:40:45Z</time>
      </trkpt>
      <trkpt lat="44.57529" lon="0.95251">
        <ele>108.77</ele>
        <time>2013-12-22T09:40:59Z</time>
      </trkpt>
      <trkpt lat="44.57536" lon="0.95224">
        <ele>110.69</ele>
        <time>2013-12-22T09:41:10Z</time>
      </trkpt>
      <trkpt lat="44.5754" lon="0.95213">
        <ele>111.17</ele>
        <time>2013-12-22T09:41:22Z</time>
      </trkpt>
      <trkpt lat="44.57543" lon="0.95202">
        <ele>112.61</ele>
        <time>2013-12-22T09:41:36Z</time>
      </trkpt>
      <trkpt lat="44.57545" lon="0.95189">
        <ele>112.61</ele>
        <time>2013-12-22T09:41:41Z</time>
      </trkpt>
      <trkpt lat="44.57549" lon="0.95152">
        <ele>110.69</ele>
        <time>2013-12-22T09:41:54Z</time>
      </trkpt>
      <trkpt lat="44.57553" lon="0.95139">
        <ele>110.69</ele>
        <time>2013-12-22T09:41:58Z</time>
      </trkpt>
      <trkpt lat="44.57561" lon="0.95097">
        <ele>112.13</ele>
        <time>2013-12-22T09:42:10Z</time>
      </trkpt>
      <trkpt lat="44.57571" lon="0.95049">
        <ele>112.61</ele>
        <time>2013-12-22T09:42:25Z</time>
      </trkpt>
      <trkpt lat="44.57574" lon="0.95039">
        <ele>113.09</ele>
        <time>2013-12-22T09:42:35Z</time>
      </trkpt>
      <trkpt lat="44.57577" lon="0.95031">
        <ele>112.61</ele>
        <time>2013-12-22T09:42:44Z</time>
      </trkpt>
      <trkpt lat="44.57577" lon="0.95029">
        <ele>113.09</ele>
        <time>2013-12-22T09:42:47Z</time>
      </trkpt>
      <trkpt lat="44.57579" lon="0.95012">
        <ele>113.57</ele>
        <time>2013-12-22T09:42:59Z</time>
      </trkpt>
      <trkpt lat="44.57581" lon="0.95">
        <ele>114.53</ele>
        <time>2013-12-22T09:43:11Z</time>
      </trkpt>
      <trkpt lat="44.57582" lon="0.94977">
        <ele>113.57</ele>
        <time>2013-12-22T09:43:18Z</time>
      </trkpt>
      <trkpt lat="44.57585" lon="0.94944">
        <ele>113.09</ele>
        <time>2013-12-22T09:43:30Z</time>
      </trkpt>
      <trkpt lat="44.57588" lon="0.94925">
        <ele>112.13</ele>
        <time>2013-12-22T09:43:42Z</time>
      </trkpt>
      <trkpt lat="44.57588" lon="0.94907">
        <ele>111.17</ele>
        <time>2013-12-22T09:43:53Z</time>
      </trkpt>
      <trkpt lat="44.57593" lon="0.94878">
        <ele>113.09</ele>
        <time>2013-12-22T09:44:05Z</time>
      </trkpt>
      <trkpt lat="44.57599" lon="0.94836">
        <ele>114.05</ele>
        <time>2013-12-22T09:44:18Z</time>
      </trkpt>
      <trkpt lat="44.57603" lon="0.94804">
        <ele>114.05</ele>
        <time>2013-12-22T09:44:29Z</time>
      </trkpt>
      <trkpt lat="44.57613" lon="0.94767">
        <ele>112.61</ele>
        <time>2013-12-22T09:44:42Z</time>
      </trkpt>
      <trkpt lat="44.57621" lon="0.94733">
        <ele>114.53</ele>
        <time>2013-12-22T09:44:55Z</time>
      </trkpt>
      <trkpt lat="44.57618" lon="0.94713">
        <ele>114.53</ele>
        <time>2013-12-22T09:45:04Z</time>
      </trkpt>
      <trkpt lat="44.57616" lon="0.94705">
        <ele>115.5</ele>
        <time>2013-12-22T09:45:09Z</time>
      </trkpt>
      <trkpt lat="44.57601" lon="0.94681">
        <ele>118.86</ele>
        <time>2013-12-22T09:45:24Z</time>
      </trkpt>
      <trkpt lat="44.57591" lon="0.94662">
        <ele>120.78</ele>
        <time>2013-12-22T09:45:37Z</time>
      </trkpt>
      <trkpt lat="44.57588" lon="0.94657">
        <ele>120.78</ele>
        <time>2013-12-22T09:45:41Z</time>
      </trkpt>
      <trkpt lat="44.57586" lon="0.9465">
        <ele>120.78</ele>
        <time>2013-12-22T09:45:49Z</time>
      </trkpt>
      <trkpt lat="44.57581" lon="0.94645">
        <ele>121.74</ele>
        <time>2013-12-22T09:46:01Z</time>
      </trkpt>
      <trkpt lat="44.57577" lon="0.94639">
        <ele>121.74</ele>
        <time>2013-12-22T09:46:09Z</time>
      </trkpt>
      <trkpt lat="44.57575" lon="0.94635">
        <ele>122.71</ele>
        <time>2013-12-22T09:46:14Z</time>
      </trkpt>
      <trkpt lat="44.5757" lon="0.94627">
        <ele>123.67</ele>
        <time>2013-12-22T09:46:25Z</time>
      </trkpt>
      <trkpt lat="44.57572" lon="0.9461">
        <ele>125.59</ele>
        <time>2013-12-22T09:46:39Z</time>
      </trkpt>
      <trkpt lat="44.57575" lon="0.94601">
        <ele>126.55</ele>
        <time>2013-12-22T09:46:53Z</time>
      </trkpt>
      <trkpt lat="44.57576" lon="0.946">
        <ele>126.55</ele>
        <time>2013-12-22T09:47:08Z</time>
      </trkpt>
      <trkpt lat="44.57578" lon="0.94598">
        <ele>126.55</ele>
        <time>2013-12-22T09:47:21Z</time>
      </trkpt>
      <trkpt lat="44.57595" lon="0.94572">
        <ele>127.99</ele>
        <time>2013-12-22T09:47:36Z</time>
      </trkpt>
      <trkpt lat="44.57613" lon="0.94546">
        <ele>131.36</ele>
        <time>2013-12-22T09:47:51Z</time>
      </trkpt>
      <trkpt lat="44.57625" lon="0.9453">
        <ele>135.68</ele>
        <time>2013-12-22T09:48:03Z</time>
      </trkpt>
      <trkpt lat="44.57622" lon="0.94524">
        <ele>136.64</ele>
        <time>2013-12-22T09:48:07Z</time>
      </trkpt>
      <trkpt lat="44.57611" lon="0.9452">
        <ele>138.57</ele>
        <time>2013-12-22T09:48:15Z</time>
      </trkpt>
      <trkpt lat="44.57605" lon="0.94517">
        <ele>140.01</ele>
        <time>2013-12-22T09:48:19Z</time>
      </trkpt>
      <trkpt lat="44.57609" lon="0.94496">
        <ele>142.89</ele>
        <time>2013-12-22T09:48:32Z</time>
      </trkpt>
      <trkpt lat="44.57615" lon="0.94475">
        <ele>144.82</ele>
        <time>2013-12-22T09:48:44Z</time>
      </trkpt>
      <trkpt lat="44.57618" lon="0.94449">
        <ele>148.18</ele>
        <time>2013-12-22T09:48:59Z</time>
      </trkpt>
      <trkpt lat="44.57618" lon="0.94438">
        <ele>150.1</ele>
        <time>2013-12-22T09:49:06Z</time>
      </trkpt>
      <trkpt lat="44.57615" lon="0.9441">
        <ele>153.47</ele>
        <time>2013-12-22T09:49:20Z</time>
      </trkpt>
      <trkpt lat="44.57615" lon="0.94375">
        <ele>157.31</ele>
        <time>2013-12-22T09:49:36Z</time>
      </trkpt>
      <trkpt lat="44.57625" lon="0.94336">
        <ele>162.12</ele>
        <time>2013-12-22T09:49:56Z</time>
      </trkpt>
      <trkpt lat="44.57629" lon="0.94325">
        <ele>163.08</ele>
        <time>2013-12-22T09:50:02Z</time>
      </trkpt>
      <trkpt lat="44.57633" lon="0.94319">
        <ele>164.04</ele>
        <time>2013-12-22T09:50:06Z</time>
      </trkpt>
      <trkpt lat="44.57642" lon="0.94305">
        <ele>165.96</ele>
        <time>2013-12-22T09:50:15Z</time>
      </trkpt>
      <trkpt lat="44.57645" lon="0.94297">
        <ele>166.93</ele>
        <time>2013-12-22T09:50:20Z</time>
      </trkpt>
      <trkpt lat="44.5765" lon="0.94281">
        <ele>169.33</ele>
        <time>2013-12-22T09:50:29Z</time>
      </trkpt>
      <trkpt lat="44.5765" lon="0.94244">
        <ele>170.29</ele>
        <time>2013-12-22T09:50:45Z</time>
      </trkpt>
      <trkpt lat="44.57639" lon="0.94211">
        <ele>170.77</ele>
        <time>2013-12-22T09:51:00Z</time>
      </trkpt>
      <trkpt lat="44.57636" lon="0.94204">
        <ele>171.73</ele>
        <time>2013-12-22T09:51:04Z</time>
      </trkpt>
      <trkpt lat="44.57633" lon="0.9419">
        <ele>173.17</ele>
        <time>2013-12-22T09:51:19Z</time>
      </trkpt>
      <trkpt lat="44.57634" lon="0.94188">
        <ele>173.17</ele>
        <time>2013-12-22T09:51:41Z</time>
      </trkpt>
      <trkpt lat="44.57636" lon="0.94189">
        <ele>174.14</ele>
        <time>2013-12-22T09:52:07Z</time>
      </trkpt>
      <trkpt lat="44.57637" lon="0.9419">
        <ele>173.66</ele>
        <time>2013-12-22T09:52:36Z</time>
      </trkpt>
      <trkpt lat="44.57637" lon="0.94187">
        <ele>174.14</ele>
        <time>2013-12-22T09:52:59Z</time>
      </trkpt>
      <trkpt lat="44.57646" lon="0.94182">
        <ele>175.1</ele>
        <time>2013-12-22T09:53:06Z</time>
      </trkpt>
      <trkpt lat="44.57657" lon="0.9419">
        <ele>175.58</ele>
        <time>2013-12-22T09:53:13Z</time>
      </trkpt>
      <trkpt lat="44.57687" lon="0.94192">
        <ele>177.02</ele>
        <time>2013-12-22T09:53:26Z</time>
      </trkpt>
      <trkpt lat="44.57732" lon="0.94198">
        <ele>177.98</ele>
        <time>2013-12-22T09:53:42Z</time>
      </trkpt>
      <trkpt lat="44.57763" lon="0.9419">
        <ele>182.79</ele>
        <time>2013-12-22T09:53:54Z</time>
      </trkpt>
      <trkpt lat="44.57784" lon="0.94159">
        <ele>184.71</ele>
        <time>2013-12-22T09:54:06Z</time>
      </trkpt>
      <trkpt lat="44.57814" lon="0.94124">
        <ele>186.15</ele>
        <time>2013-12-22T09:54:21Z</time>
      </trkpt>
      <trkpt lat="44.57847" lon="0.94104">
        <ele>187.11</ele>
        <time>2013-12-22T09:54:34Z</time>
      </trkpt>
      <trkpt lat="44.57872" lon="0.9407">
        <ele>190</ele>
        <time>2013-12-22T09:54:47Z</time>
      </trkpt>
      <trkpt lat="44.57866" lon="0.94041">
        <ele>196.25</ele>
        <time>2013-12-22T09:54:58Z</time>
      </trkpt>
      <trkpt lat="44.57845" lon="0.94003">
        <ele>200.09</ele>
        <time>2013-12-22T09:55:14Z</time>
      </trkpt>
      <trkpt lat="44.57843" lon="0.93997">
        <ele>202.49</ele>
        <time>2013-12-22T09:55:26Z</time>
      </trkpt>
      <trkpt lat="44.57844" lon="0.93996">
        <ele>200.09</ele>
        <time>2013-12-22T09:55:44Z</time>
      </trkpt>
      <trkpt lat="44.57842" lon="0.93995">
        <ele>200.57</ele>
        <time>2013-12-22T09:56:10Z</time>
      </trkpt>
      <trkpt lat="44.57843" lon="0.93997">
        <ele>203.94</ele>
        <time>2013-12-22T09:56:32Z</time>
      </trkpt>
      <trkpt lat="44.57846" lon="0.93997">
        <ele>202.98</ele>
        <time>2013-12-22T09:56:50Z</time>
      </trkpt>
      <trkpt lat="44.57846" lon="0.93996">
        <ele>202.98</ele>
        <time>2013-12-22T09:56:53Z</time>
      </trkpt>
      <trkpt lat="44.57854" lon="0.93988">
        <ele>201.53</ele>
        <time>2013-12-22T09:56:57Z</time>
      </trkpt>
      <trkpt lat="44.5787" lon="0.93981">
        <ele>199.13</ele>
        <time>2013-12-22T09:57:01Z</time>
      </trkpt>
      <trkpt lat="44.57891" lon="0.93972">
        <ele>196.25</ele>
        <time>2013-12-22T09:57:06Z</time>
      </trkpt>
      <trkpt lat="44.57908" lon="0.93946">
        <ele>193.84</ele>
        <time>2013-12-22T09:57:11Z</time>
      </trkpt>
      <trkpt lat="44.57931" lon="0.93874">
        <ele>191.92</ele>
        <time>2013-12-22T09:57:24Z</time>
      </trkpt>
      <trkpt lat="44.57938" lon="0.93842">
        <ele>190.48</ele>
        <time>2013-12-22T09:57:31Z</time>
      </trkpt>
      <trkpt lat="44.57937" lon="0.93822">
        <ele>189.04</ele>
        <time>2013-12-22T09:57:34Z</time>
      </trkpt>
      <trkpt lat="44.57938" lon="0.93781">
        <ele>186.63</ele>
        <time>2013-12-22T09:57:39Z</time>
      </trkpt>
      <trkpt lat="44.57942" lon="0.93729">
        <ele>183.75</ele>
        <time>2013-12-22T09:57:45Z</time>
      </trkpt>
      <trkpt lat="44.57943" lon="0.93686">
        <ele>181.35</ele>
        <time>2013-12-22T09:57:50Z</time>
      </trkpt>
      <trkpt lat="44.57934" lon="0.93655">
        <ele>179.42</ele>
        <time>2013-12-22T09:57:54Z</time>
      </trkpt>
      <trkpt lat="44.57925" lon="0.93636">
        <ele>177.5</ele>
        <time>2013-12-22T09:57:57Z</time>
      </trkpt>
      <trkpt lat="44.57907" lon="0.9361">
        <ele>174.14</ele>
        <time>2013-12-22T09:58:02Z</time>
      </trkpt>
      <trkpt lat="44.57888" lon="0.93589">
        <ele>172.69</ele>
        <time>2013-12-22T09:58:10Z</time>
      </trkpt>
      <trkpt lat="44.57888" lon="0.93586">
        <ele>171.25</ele>
        <time>2013-12-22T09:58:23Z</time>
      </trkpt>
      <trkpt lat="44.57898" lon="0.93558">
        <ele>170.29</ele>
        <time>2013-12-22T09:58:31Z</time>
      </trkpt>
      <trkpt lat="44.57912" lon="0.93502">
        <ele>169.33</ele>
        <time>2013-12-22T09:58:41Z</time>
      </trkpt>
      <trkpt lat="44.57915" lon="0.93498">
        <ele>169.33</ele>
        <time>2013-12-22T09:58:42Z</time>
      </trkpt>
      <trkpt lat="44.5792" lon="0.9347">
        <ele>169.33</ele>
        <time>2013-12-22T09:58:47Z</time>
      </trkpt>
      <trkpt lat="44.57914" lon="0.93423">
        <ele>172.69</ele>
        <time>2013-12-22T09:58:59Z</time>
      </trkpt>
      <trkpt lat="44.57918" lon="0.93411">
        <ele>175.1</ele>
        <time>2013-12-22T09:59:08Z</time>
      </trkpt>
      <trkpt lat="44.57917" lon="0.93409">
        <ele>177.5</ele>
        <time>2013-12-22T09:59:25Z</time>
      </trkpt>
      <trkpt lat="44.57919" lon="0.93408">
        <ele>179.9</ele>
        <time>2013-12-22T09:59:44Z</time>
      </trkpt>
      <trkpt lat="44.57926" lon="0.9341">
        <ele>183.27</ele>
        <time>2013-12-22T09:59:59Z</time>
      </trkpt>
      <trkpt lat="44.57927" lon="0.93412">
        <ele>184.23</ele>
        <time>2013-12-22T10:00:02Z</time>
      </trkpt>
      <trkpt lat="44.57941" lon="0.93424">
        <ele>187.59</ele>
        <time>2013-12-22T10:00:16Z</time>
      </trkpt>
      <trkpt lat="44.57947" lon="0.93425">
        <ele>189.04</ele>
        <time>2013-12-22T10:00:28Z</time>
      </trkpt>
      <trkpt lat="44.57959" lon="0.93434">
        <ele>192.4</ele>
        <time>2013-12-22T10:00:42Z</time>
      </trkpt>
      <trkpt lat="44.57968" lon="0.93439">
        <ele>194.8</ele>
        <time>2013-12-22T10:00:56Z</time>
      </trkpt>
      <trkpt lat="44.57979" lon="0.93449">
        <ele>198.65</ele>
        <time>2013-12-22T10:01:05Z</time>
      </trkpt>
      <trkpt lat="44.5799" lon="0.93457">
        <ele>200.09</ele>
        <time>2013-12-22T10:01:18Z</time>
      </trkpt>
      <trkpt lat="44.58" lon="0.93462">
        <ele>200.57</ele>
        <time>2013-12-22T10:01:32Z</time>
      </trkpt>
      <trkpt lat="44.58011" lon="0.93463">
        <ele>205.38</ele>
        <time>2013-12-22T10:01:47Z</time>
      </trkpt>
      <trkpt lat="44.58025" lon="0.93459">
        <ele>208.74</ele>
        <time>2013-12-22T10:02:06Z</time>
      </trkpt>
      <trkpt lat="44.58027" lon="0.93456">
        <ele>209.7</ele>
        <time>2013-12-22T10:02:27Z</time>
      </trkpt>
      <trkpt lat="44.5803" lon="0.93455">
        <ele>208.26</ele>
        <time>2013-12-22T10:02:44Z</time>
      </trkpt>
      <trkpt lat="44.5803" lon="0.9345">
        <ele>210.67</ele>
        <time>2013-12-22T10:03:05Z</time>
      </trkpt>
      <trkpt lat="44.5803" lon="0.93453">
        <ele>210.19</ele>
        <time>2013-12-22T10:03:22Z</time>
      </trkpt>
      <trkpt lat="44.58036" lon="0.93451">
        <ele>209.7</ele>
        <time>2013-12-22T10:03:38Z</time>
      </trkpt>
      <trkpt lat="44.58038" lon="0.93446">
        <ele>209.7</ele>
        <time>2013-12-22T10:03:53Z</time>
      </trkpt>
      <trkpt lat="44.5804" lon="0.93447">
        <ele>209.7</ele>
        <time>2013-12-22T10:04:12Z</time>
      </trkpt>
      <trkpt lat="44.5804" lon="0.93441">
        <ele>209.7</ele>
        <time>2013-12-22T10:04:24Z</time>
      </trkpt>
      <trkpt lat="44.58037" lon="0.93433">
        <ele>209.7</ele>
        <time>2013-12-22T10:04:28Z</time>
      </trkpt>
      <trkpt lat="44.58035" lon="0.93426">
        <ele>210.19</ele>
        <time>2013-12-22T10:04:31Z</time>
      </trkpt>
      <trkpt lat="44.58024" lon="0.93388">
        <ele>212.11</ele>
        <time>2013-12-22T10:04:46Z</time>
      </trkpt>
      <trkpt lat="44.5801" lon="0.9336">
        <ele>214.03</ele>
        <time>2013-12-22T10:04:56Z</time>
      </trkpt>
      <trkpt lat="44.5801" lon="0.93351">
        <ele>213.55</ele>
        <time>2013-12-22T10:05:00Z</time>
      </trkpt>
      <trkpt lat="44.58009" lon="0.93346">
        <ele>214.03</ele>
        <time>2013-12-22T10:05:02Z</time>
      </trkpt>
      <trkpt lat="44.57995" lon="0.93328">
        <ele>214.03</ele>
        <time>2013-12-22T10:05:11Z</time>
      </trkpt>
      <trkpt lat="44.5798" lon="0.93292">
        <ele>214.51</ele>
        <time>2013-12-22T10:05:24Z</time>
      </trkpt>
      <trkpt lat="44.57974" lon="0.93259">
        <ele>218.36</ele>
        <time>2013-12-22T10:05:36Z</time>
      </trkpt>
      <trkpt lat="44.57968" lon="0.93228">
        <ele>223.16</ele>
        <time>2013-12-22T10:05:48Z</time>
      </trkpt>
      <trkpt lat="44.5797" lon="0.9322">
        <ele>223.16</ele>
        <time>2013-12-22T10:05:51Z</time>
      </trkpt>
      <trkpt lat="44.57974" lon="0.9321">
        <ele>223.64</ele>
        <time>2013-12-22T10:05:56Z</time>
      </trkpt>
      <trkpt lat="44.57981" lon="0.93202">
        <ele>223.16</ele>
        <time>2013-12-22T10:06:01Z</time>
      </trkpt>
      <trkpt lat="44.57983" lon="0.93187">
        <ele>222.2</ele>
        <time>2013-12-22T10:06:07Z</time>
      </trkpt>
      <trkpt lat="44.57993" lon="0.93149">
        <ele>223.64</ele>
        <time>2013-12-22T10:06:22Z</time>
      </trkpt>
      <trkpt lat="44.57993" lon="0.93132">
        <ele>223.64</ele>
        <time>2013-12-22T10:06:30Z</time>
      </trkpt>
      <trkpt lat="44.57983" lon="0.93112">
        <ele>227.49</ele>
        <time>2013-12-22T10:06:38Z</time>
      </trkpt>
      <trkpt lat="44.57976" lon="0.93079">
        <ele>230.37</ele>
        <time>2013-12-22T10:06:50Z</time>
      </trkpt>
      <trkpt lat="44.57966" lon="0.93063">
        <ele>232.78</ele>
        <time>2013-12-22T10:06:57Z</time>
      </trkpt>
      <trkpt lat="44.5796" lon="0.93043">
        <ele>232.78</ele>
        <time>2013-12-22T10:07:04Z</time>
      </trkpt>
      <trkpt lat="44.57957" lon="0.93038">
        <ele>232.78</ele>
        <time>2013-12-22T10:07:06Z</time>
      </trkpt>
      <trkpt lat="44.57925" lon="0.9302">
        <ele>232.78</ele>
        <time>2013-12-22T10:07:18Z</time>
      </trkpt>
      <trkpt lat="44.5791" lon="0.92999">
        <ele>230.85</ele>
        <time>2013-12-22T10:07:27Z</time>
      </trkpt>
      <trkpt lat="44.5789" lon="0.92976">
        <ele>229.41</ele>
        <time>2013-12-22T10:07:39Z</time>
      </trkpt>
      <trkpt lat="44.57888" lon="0.92975">
        <ele>229.41</ele>
        <time>2013-12-22T10:07:40Z</time>
      </trkpt>
      <trkpt lat="44.57868" lon="0.92953">
        <ele>229.41</ele>
        <time>2013-12-22T10:07:53Z</time>
      </trkpt>
      <trkpt lat="44.57867" lon="0.92954">
        <ele>230.37</ele>
        <time>2013-12-22T10:08:14Z</time>
      </trkpt>
      <trkpt lat="44.57857" lon="0.92942">
        <ele>230.85</ele>
        <time>2013-12-22T10:08:30Z</time>
      </trkpt>
      <trkpt lat="44.57843" lon="0.92912">
        <ele>236.62</ele>
        <time>2013-12-22T10:08:42Z</time>
      </trkpt>
      <trkpt lat="44.57831" lon="0.92883">
        <ele>242.39</ele>
        <time>2013-12-22T10:08:52Z</time>
      </trkpt>
      <trkpt lat="44.57816" lon="0.92854">
        <ele>245.27</ele>
        <time>2013-12-22T10:09:03Z</time>
      </trkpt>
      <trkpt lat="44.57812" lon="0.92847">
        <ele>246.23</ele>
        <time>2013-12-22T10:09:06Z</time>
      </trkpt>
      <trkpt lat="44.57802" lon="0.92817">
        <ele>251.04</ele>
        <time>2013-12-22T10:09:17Z</time>
      </trkpt>
      <trkpt lat="44.57789" lon="0.92787">
        <ele>254.41</ele>
        <time>2013-12-22T10:09:28Z</time>
      </trkpt>
      <trkpt lat="44.57788" lon="0.92784">
        <ele>254.41</ele>
        <time>2013-12-22T10:09:29Z</time>
      </trkpt>
      <trkpt lat="44.57789" lon="0.92765">
        <ele>253.44</ele>
        <time>2013-12-22T10:09:35Z</time>
      </trkpt>
      <trkpt lat="44.5779" lon="0.92754">
        <ele>252.48</ele>
        <time>2013-12-22T10:09:38Z</time>
      </trkpt>
      <trkpt lat="44.57788" lon="0.92739">
        <ele>251.04</ele>
        <time>2013-12-22T10:09:43Z</time>
      </trkpt>
      <trkpt lat="44.57782" lon="0.92736">
        <ele>247.68</ele>
        <time>2013-12-22T10:09:55Z</time>
      </trkpt>
      <trkpt lat="44.57783" lon="0.92736">
        <ele>247.68</ele>
        <time>2013-12-22T10:09:59Z</time>
      </trkpt>
      <trkpt lat="44.57791" lon="0.92728">
        <ele>248.16</ele>
        <time>2013-12-22T10:10:05Z</time>
      </trkpt>
      <trkpt lat="44.57818" lon="0.92704">
        <ele>249.12</ele>
        <time>2013-12-22T10:10:18Z</time>
      </trkpt>
      <trkpt lat="44.57848" lon="0.92677">
        <ele>249.6</ele>
        <time>2013-12-22T10:10:29Z</time>
      </trkpt>
      <trkpt lat="44.57898" lon="0.92639">
        <ele>250.08</ele>
        <time>2013-12-22T10:10:45Z</time>
      </trkpt>
      <trkpt lat="44.57938" lon="0.92608">
        <ele>252.96</ele>
        <time>2013-12-22T10:10:58Z</time>
      </trkpt>
      <trkpt lat="44.57991" lon="0.92582">
        <ele>252.96</ele>
        <time>2013-12-22T10:11:13Z</time>
      </trkpt>
      <trkpt lat="44.58012" lon="0.92568">
        <ele>251.52</ele>
        <time>2013-12-22T10:11:18Z</time>
      </trkpt>
      <trkpt lat="44.58054" lon="0.9253">
        <ele>248.16</ele>
        <time>2013-12-22T10:11:26Z</time>
      </trkpt>
      <trkpt lat="44.58082" lon="0.92519">
        <ele>246.23</ele>
        <time>2013-12-22T10:11:30Z</time>
      </trkpt>
      <trkpt lat="44.58192" lon="0.9251">
        <ele>241.43</ele>
        <time>2013-12-22T10:11:48Z</time>
      </trkpt>
      <trkpt lat="44.58289" lon="0.92485">
        <ele>236.14</ele>
        <time>2013-12-22T10:12:04Z</time>
      </trkpt>
      <trkpt lat="44.58299" lon="0.92479">
        <ele>235.66</ele>
        <time>2013-12-22T10:12:06Z</time>
      </trkpt>
      <trkpt lat="44.5836" lon="0.92474">
        <ele>234.7</ele>
        <time>2013-12-22T10:12:19Z</time>
      </trkpt>
      <trkpt lat="44.58435" lon="0.92482">
        <ele>235.18</ele>
        <time>2013-12-22T10:12:36Z</time>
      </trkpt>
      <trkpt lat="44.585" lon="0.92486">
        <ele>237.1</ele>
        <time>2013-12-22T10:12:51Z</time>
      </trkpt>
      <trkpt lat="44.58518" lon="0.92488">
        <ele>237.58</ele>
        <time>2013-12-22T10:12:55Z</time>
      </trkpt>
      <trkpt lat="44.58608" lon="0.92508">
        <ele>238.54</ele>
        <time>2013-12-22T10:13:16Z</time>
      </trkpt>
      <trkpt lat="44.58625" lon="0.92518">
        <ele>237.58</ele>
        <time>2013-12-22T10:13:20Z</time>
      </trkpt>
      <trkpt lat="44.58634" lon="0.9252">
        <ele>237.1</ele>
        <time>2013-12-22T10:13:22Z</time>
      </trkpt>
      <trkpt lat="44.5865" lon="0.92529">
        <ele>236.14</ele>
        <time>2013-12-22T10:13:26Z</time>
      </trkpt>
      <trkpt lat="44.58662" lon="0.9253">
        <ele>235.18</ele>
        <time>2013-12-22T10:13:29Z</time>
      </trkpt>
      <trkpt lat="44.58672" lon="0.92537">
        <ele>234.22</ele>
        <time>2013-12-22T10:13:37Z</time>
      </trkpt>
      <trkpt lat="44.58672" lon="0.92537">
        <ele>234.22</ele>
        <time>2013-12-22T10:13:38Z</time>
      </trkpt>
      <trkpt lat="44.5867" lon="0.92538">
        <ele>234.22</ele>
        <time>2013-12-22T10:13:40Z</time>
      </trkpt>
      <trkpt lat="44.58664" lon="0.92526">
        <ele>234.7</ele>
        <time>2013-12-22T10:13:45Z</time>
      </trkpt>
      <trkpt lat="44.58658" lon="0.92481">
        <ele>237.1</ele>
        <time>2013-12-22T10:13:53Z</time>
      </trkpt>
      <trkpt lat="44.58666" lon="0.92468">
        <ele>239.02</ele>
        <time>2013-12-22T10:13:58Z</time>
      </trkpt>
      <trkpt lat="44.5872" lon="0.92463">
        <ele>241.91</ele>
        <time>2013-12-22T10:14:15Z</time>
      </trkpt>
      <trkpt lat="44.58769" lon="0.92451">
        <ele>243.35</ele>
        <time>2013-12-22T10:14:30Z</time>
      </trkpt>
      <trkpt lat="44.58816" lon="0.92442">
        <ele>242.39</ele>
        <time>2013-12-22T10:14:44Z</time>
      </trkpt>
      <trkpt lat="44.58879" lon="0.92412">
        <ele>241.91</ele>
        <time>2013-12-22T10:15:02Z</time>
      </trkpt>
      <trkpt lat="44.58928" lon="0.92392">
        <ele>239.99</ele>
        <time>2013-12-22T10:15:14Z</time>
      </trkpt>
      <trkpt lat="44.58946" lon="0.92399">
        <ele>239.02</ele>
        <time>2013-12-22T10:15:18Z</time>
      </trkpt>
      <trkpt lat="44.58987" lon="0.92475">
        <ele>240.47</ele>
        <time>2013-12-22T10:15:33Z</time>
      </trkpt>
      <trkpt lat="44.59013" lon="0.92533">
        <ele>241.91</ele>
        <time>2013-12-22T10:15:47Z</time>
      </trkpt>
      <trkpt lat="44.59032" lon="0.92586">
        <ele>241.91</ele>
        <time>2013-12-22T10:16:00Z</time>
      </trkpt>
      <trkpt lat="44.5903" lon="0.92619">
        <ele>240.47</ele>
        <time>2013-12-22T10:16:05Z</time>
      </trkpt>
      <trkpt lat="44.58994" lon="0.92712">
        <ele>239.02</ele>
        <time>2013-12-22T10:16:21Z</time>
      </trkpt>
      <trkpt lat="44.58992" lon="0.9272">
        <ele>239.02</ele>
        <time>2013-12-22T10:16:23Z</time>
      </trkpt>
      <trkpt lat="44.59" lon="0.92728">
        <ele>238.54</ele>
        <time>2013-12-22T10:16:27Z</time>
      </trkpt>
      <trkpt lat="44.59016" lon="0.92732">
        <ele>238.54</ele>
        <time>2013-12-22T10:16:31Z</time>
      </trkpt>
      <trkpt lat="44.59055" lon="0.92745">
        <ele>238.54</ele>
        <time>2013-12-22T10:16:41Z</time>
      </trkpt>
      <trkpt lat="44.59115" lon="0.9278">
        <ele>239.51</ele>
        <time>2013-12-22T10:16:57Z</time>
      </trkpt>
      <trkpt lat="44.59152" lon="0.9276">
        <ele>239.51</ele>
        <time>2013-12-22T10:17:08Z</time>
      </trkpt>
      <trkpt lat="44.59188" lon="0.92751">
        <ele>238.54</ele>
        <time>2013-12-22T10:17:21Z</time>
      </trkpt>
      <trkpt lat="44.59199" lon="0.92751">
        <ele>238.06</ele>
        <time>2013-12-22T10:17:26Z</time>
      </trkpt>
      <trkpt lat="44.59201" lon="0.9275">
        <ele>238.54</ele>
        <time>2013-12-22T10:17:41Z</time>
      </trkpt>
      <trkpt lat="44.59203" lon="0.92751">
        <ele>237.58</ele>
        <time>2013-12-22T10:18:01Z</time>
      </trkpt>
      <trkpt lat="44.59205" lon="0.9275">
        <ele>238.06</ele>
        <time>2013-12-22T10:18:30Z</time>
      </trkpt>
      <trkpt lat="44.59205" lon="0.9275">
        <ele>238.06</ele>
        <time>2013-12-22T10:18:35Z</time>
      </trkpt>
      <trkpt lat="44.59209" lon="0.92758">
        <ele>237.58</ele>
        <time>2013-12-22T10:18:39Z</time>
      </trkpt>
      <trkpt lat="44.59234" lon="0.92799">
        <ele>239.99</ele>
        <time>2013-12-22T10:18:51Z</time>
      </trkpt>
      <trkpt lat="44.59243" lon="0.92837">
        <ele>239.51</ele>
        <time>2013-12-22T10:19:00Z</time>
      </trkpt>
      <trkpt lat="44.59257" lon="0.92849">
        <ele>238.54</ele>
        <time>2013-12-22T10:19:04Z</time>
      </trkpt>
      <trkpt lat="44.59307" lon="0.92872">
        <ele>237.58</ele>
        <time>2013-12-22T10:19:15Z</time>
      </trkpt>
      <trkpt lat="44.59322" lon="0.92887">
        <ele>237.58</ele>
        <time>2013-12-22T10:19:19Z</time>
      </trkpt>
      <trkpt lat="44.59368" lon="0.92952">
        <ele>238.06</ele>
        <time>2013-12-22T10:19:32Z</time>
      </trkpt>
      <trkpt lat="44.59375" lon="0.92963">
        <ele>238.54</ele>
        <time>2013-12-22T10:19:34Z</time>
      </trkpt>
      <trkpt lat="44.59409" lon="0.93008">
        <ele>238.06</ele>
        <time>2013-12-22T10:19:46Z</time>
      </trkpt>
      <trkpt lat="44.5943" lon="0.93025">
        <ele>237.58</ele>
        <time>2013-12-22T10:19:54Z</time>
      </trkpt>
      <trkpt lat="44.59458" lon="0.93052">
        <ele>235.66</ele>
        <time>2013-12-22T10:20:01Z</time>
      </trkpt>
      <trkpt lat="44.59477" lon="0.93067">
        <ele>236.14</ele>
        <time>2013-12-22T10:20:05Z</time>
      </trkpt>
      <trkpt lat="44.59527" lon="0.93096">
        <ele>232.78</ele>
        <time>2013-12-22T10:20:17Z</time>
      </trkpt>
      <trkpt lat="44.59531" lon="0.93098">
        <ele>232.78</ele>
        <time>2013-12-22T10:20:18Z</time>
      </trkpt>
      <trkpt lat="44.5954" lon="0.93103">
        <ele>232.3</ele>
        <time>2013-12-22T10:20:20Z</time>
      </trkpt>
      <trkpt lat="44.5956" lon="0.93108">
        <ele>232.3</ele>
        <time>2013-12-22T10:20:24Z</time>
      </trkpt>
      <trkpt lat="44.59578" lon="0.93119">
        <ele>231.81</ele>
        <time>2013-12-22T10:20:28Z</time>
      </trkpt>
      <trkpt lat="44.59594" lon="0.93135">
        <ele>232.3</ele>
        <time>2013-12-22T10:20:32Z</time>
      </trkpt>
      <trkpt lat="44.59628" lon="0.93172">
        <ele>236.14</ele>
        <time>2013-12-22T10:20:47Z</time>
      </trkpt>
      <trkpt lat="44.59631" lon="0.93177">
        <ele>236.14</ele>
        <time>2013-12-22T10:20:50Z</time>
      </trkpt>
      <trkpt lat="44.59653" lon="0.932">
        <ele>237.1</ele>
        <time>2013-12-22T10:21:02Z</time>
      </trkpt>
      <trkpt lat="44.59677" lon="0.93246">
        <ele>236.62</ele>
        <time>2013-12-22T10:21:14Z</time>
      </trkpt>
      <trkpt lat="44.597" lon="0.93307">
        <ele>239.99</ele>
        <time>2013-12-22T10:21:29Z</time>
      </trkpt>
      <trkpt lat="44.5972" lon="0.93355">
        <ele>239.51</ele>
        <time>2013-12-22T10:21:43Z</time>
      </trkpt>
      <trkpt lat="44.5972" lon="0.93358">
        <ele>237.1</ele>
        <time>2013-12-22T10:21:54Z</time>
      </trkpt>
      <trkpt lat="44.59721" lon="0.9336">
        <ele>237.1</ele>
        <time>2013-12-22T10:21:57Z</time>
      </trkpt>
      <trkpt lat="44.59726" lon="0.93374">
        <ele>235.66</ele>
        <time>2013-12-22T10:22:09Z</time>
      </trkpt>
      <trkpt lat="44.59734" lon="0.93391">
        <ele>236.14</ele>
        <time>2013-12-22T10:22:24Z</time>
      </trkpt>
      <trkpt lat="44.59762" lon="0.93432">
        <ele>237.1</ele>
        <time>2013-12-22T10:22:39Z</time>
      </trkpt>
      <trkpt lat="44.59762" lon="0.93433">
        <ele>237.1</ele>
        <time>2013-12-22T10:22:40Z</time>
      </trkpt>
      <trkpt lat="44.59795" lon="0.9345">
        <ele>237.1</ele>
        <time>2013-12-22T10:22:53Z</time>
      </trkpt>
      <trkpt lat="44.59841" lon="0.9349">
        <ele>239.51</ele>
        <time>2013-12-22T10:23:08Z</time>
      </trkpt>
      <trkpt lat="44.59879" lon="0.93524">
        <ele>240.95</ele>
        <time>2013-12-22T10:23:20Z</time>
      </trkpt>
      <trkpt lat="44.59934" lon="0.93545">
        <ele>240.47</ele>
        <time>2013-12-22T10:23:33Z</time>
      </trkpt>
      <trkpt lat="44.59994" lon="0.93554">
        <ele>243.83</ele>
        <time>2013-12-22T10:23:49Z</time>
      </trkpt>
      <trkpt lat="44.60001" lon="0.93558">
        <ele>246.72</ele>
        <time>2013-12-22T10:23:57Z</time>
      </trkpt>
      <trkpt lat="44.60001" lon="0.93555">
        <ele>249.6</ele>
        <time>2013-12-22T10:24:18Z</time>
      </trkpt>
      <trkpt lat="44.60007" lon="0.93559">
        <ele>251.04</ele>
        <time>2013-12-22T10:24:38Z</time>
      </trkpt>
      <trkpt lat="44.60013" lon="0.93562">
        <ele>251.04</ele>
        <time>2013-12-22T10:24:54Z</time>
      </trkpt>
      <trkpt lat="44.60014" lon="0.93564">
        <ele>251.52</ele>
        <time>2013-12-22T10:25:15Z</time>
      </trkpt>
      <trkpt lat="44.60016" lon="0.93567">
        <ele>250.56</ele>
        <time>2013-12-22T10:25:33Z</time>
      </trkpt>
      <trkpt lat="44.60015" lon="0.93566">
        <ele>251.04</ele>
        <time>2013-12-22T10:25:57Z</time>
      </trkpt>
      <trkpt lat="44.60015" lon="0.93565">
        <ele>250.08</ele>
        <time>2013-12-22T10:26:20Z</time>
      </trkpt>
      <trkpt lat="44.60013" lon="0.93566">
        <ele>252</ele>
        <time>2013-12-22T10:26:44Z</time>
      </trkpt>
      <trkpt lat="44.60015" lon="0.93569">
        <ele>252</ele>
        <time>2013-12-22T10:27:05Z</time>
      </trkpt>
      <trkpt lat="44.60018" lon="0.93568">
        <ele>251.52</ele>
        <time>2013-12-22T10:27:26Z</time>
      </trkpt>
      <trkpt lat="44.60031" lon="0.93577">
        <ele>252.96</ele>
        <time>2013-12-22T10:27:39Z</time>
      </trkpt>
      <trkpt lat="44.60071" lon="0.93598">
        <ele>251.52</ele>
        <time>2013-12-22T10:27:52Z</time>
      </trkpt>
      <trkpt lat="44.60131" lon="0.9363">
        <ele>250.08</ele>
        <time>2013-12-22T10:28:10Z</time>
      </trkpt>
      <trkpt lat="44.60175" lon="0.93641">
        <ele>251.52</ele>
        <time>2013-12-22T10:28:23Z</time>
      </trkpt>
      <trkpt lat="44.60206" lon="0.93648">
        <ele>250.56</ele>
        <time>2013-12-22T10:28:33Z</time>
      </trkpt>
      <trkpt lat="44.60213" lon="0.93637">
        <ele>252.48</ele>
        <time>2013-12-22T10:28:38Z</time>
      </trkpt>
      <trkpt lat="44.60236" lon="0.93611">
        <ele>256.81</ele>
        <time>2013-12-22T10:28:50Z</time>
      </trkpt>
      <trkpt lat="44.60263" lon="0.93583">
        <ele>258.73</ele>
        <time>2013-12-22T10:29:04Z</time>
      </trkpt>
      <trkpt lat="44.60279" lon="0.93561">
        <ele>257.77</ele>
        <time>2013-12-22T10:29:15Z</time>
      </trkpt>
      <trkpt lat="44.60287" lon="0.93552">
        <ele>258.25</ele>
        <time>2013-12-22T10:29:23Z</time>
      </trkpt>
      <trkpt lat="44.60287" lon="0.93551">
        <ele>258.25</ele>
        <time>2013-12-22T10:29:24Z</time>
      </trkpt>
      <trkpt lat="44.60295" lon="0.9351">
        <ele>256.81</ele>
        <time>2013-12-22T10:29:36Z</time>
      </trkpt>
      <trkpt lat="44.60304" lon="0.93457">
        <ele>256.33</ele>
        <time>2013-12-22T10:29:47Z</time>
      </trkpt>
      <trkpt lat="44.60308" lon="0.93437">
        <ele>255.37</ele>
        <time>2013-12-22T10:29:52Z</time>
      </trkpt>
      <trkpt lat="44.60311" lon="0.93425">
        <ele>255.37</ele>
        <time>2013-12-22T10:29:56Z</time>
      </trkpt>
      <trkpt lat="44.60317" lon="0.93406">
        <ele>254.89</ele>
        <time>2013-12-22T10:30:08Z</time>
      </trkpt>
      <trkpt lat="44.6032" lon="0.93398">
        <ele>254.41</ele>
        <time>2013-12-22T10:30:14Z</time>
      </trkpt>
      <trkpt lat="44.60322" lon="0.93385">
        <ele>253.93</ele>
        <time>2013-12-22T10:30:19Z</time>
      </trkpt>
      <trkpt lat="44.60336" lon="0.93325">
        <ele>249.12</ele>
        <time>2013-12-22T10:30:32Z</time>
      </trkpt>
      <trkpt lat="44.60347" lon="0.93277">
        <ele>246.72</ele>
        <time>2013-12-22T10:30:42Z</time>
      </trkpt>
      <trkpt lat="44.60348" lon="0.93274">
        <ele>246.72</ele>
        <time>2013-12-22T10:30:43Z</time>
      </trkpt>
      <trkpt lat="44.6035" lon="0.93249">
        <ele>245.27</ele>
        <time>2013-12-22T10:30:49Z</time>
      </trkpt>
      <trkpt lat="44.60348" lon="0.93234">
        <ele>245.27</ele>
        <time>2013-12-22T10:30:52Z</time>
      </trkpt>
      <trkpt lat="44.60342" lon="0.93219">
        <ele>245.75</ele>
        <time>2013-12-22T10:30:55Z</time>
      </trkpt>
      <trkpt lat="44.60337" lon="0.93207">
        <ele>246.72</ele>
        <time>2013-12-22T10:30:57Z</time>
      </trkpt>
      <trkpt lat="44.60332" lon="0.93193">
        <ele>247.2</ele>
        <time>2013-12-22T10:30:59Z</time>
      </trkpt>
      <trkpt lat="44.60319" lon="0.93157">
        <ele>247.2</ele>
        <time>2013-12-22T10:31:04Z</time>
      </trkpt>
      <trkpt lat="44.60301" lon="0.93131">
        <ele>247.2</ele>
        <time>2013-12-22T10:31:09Z</time>
      </trkpt>
      <trkpt lat="44.60287" lon="0.93109">
        <ele>246.23</ele>
        <time>2013-12-22T10:31:13Z</time>
      </trkpt>
      <trkpt lat="44.60283" lon="0.93082">
        <ele>244.79</ele>
        <time>2013-12-22T10:31:17Z</time>
      </trkpt>
      <trkpt lat="44.60284" lon="0.93045">
        <ele>243.83</ele>
        <time>2013-12-22T10:31:22Z</time>
      </trkpt>
      <trkpt lat="44.6029" lon="0.9301">
        <ele>242.87</ele>
        <time>2013-12-22T10:31:27Z</time>
      </trkpt>
      <trkpt lat="44.60289" lon="0.92989">
        <ele>242.39</ele>
        <time>2013-12-22T10:31:30Z</time>
      </trkpt>
      <trkpt lat="44.60287" lon="0.92974">
        <ele>241.91</ele>
        <time>2013-12-22T10:31:32Z</time>
      </trkpt>
      <trkpt lat="44.60276" lon="0.92901">
        <ele>240.47</ele>
        <time>2013-12-22T10:31:40Z</time>
      </trkpt>
      <trkpt lat="44.60268" lon="0.92828">
        <ele>240.47</ele>
        <time>2013-12-22T10:31:49Z</time>
      </trkpt>
      <trkpt lat="44.60262" lon="0.92787">
        <ele>240.47</ele>
        <time>2013-12-22T10:31:58Z</time>
      </trkpt>
      <trkpt lat="44.60254" lon="0.92777">
        <ele>239.99</ele>
        <time>2013-12-22T10:32:01Z</time>
      </trkpt>
      <trkpt lat="44.60251" lon="0.92763">
        <ele>239.99</ele>
        <time>2013-12-22T10:32:06Z</time>
      </trkpt>
      <trkpt lat="44.60259" lon="0.92756">
        <ele>242.87</ele>
        <time>2013-12-22T10:32:21Z</time>
      </trkpt>
      <trkpt lat="44.60261" lon="0.92754">
        <ele>243.35</ele>
        <time>2013-12-22T10:32:29Z</time>
      </trkpt>
      <trkpt lat="44.60265" lon="0.92751">
        <ele>243.35</ele>
        <time>2013-12-22T10:32:33Z</time>
      </trkpt>
      <trkpt lat="44.60268" lon="0.92746">
        <ele>243.83</ele>
        <time>2013-12-22T10:32:36Z</time>
      </trkpt>
      <trkpt lat="44.60271" lon="0.92742">
        <ele>243.35</ele>
        <time>2013-12-22T10:32:51Z</time>
      </trkpt>
      <trkpt lat="44.60271" lon="0.92742">
        <ele>243.83</ele>
        <time>2013-12-22T10:33:16Z</time>
      </trkpt>
      <trkpt lat="44.60276" lon="0.92736">
        <ele>244.79</ele>
        <time>2013-12-22T10:33:33Z</time>
      </trkpt>
      <trkpt lat="44.60308" lon="0.92717">
        <ele>245.75</ele>
        <time>2013-12-22T10:33:49Z</time>
      </trkpt>
      <trkpt lat="44.60355" lon="0.92715">
        <ele>245.75</ele>
        <time>2013-12-22T10:34:04Z</time>
      </trkpt>
      <trkpt lat="44.60392" lon="0.92713">
        <ele>246.72</ele>
        <time>2013-12-22T10:34:17Z</time>
      </trkpt>
      <trkpt lat="44.60418" lon="0.92708">
        <ele>246.23</ele>
        <time>2013-12-22T10:34:23Z</time>
      </trkpt>
      <trkpt lat="44.60471" lon="0.92687">
        <ele>242.87</ele>
        <time>2013-12-22T10:34:31Z</time>
      </trkpt>
      <trkpt lat="44.6049" lon="0.92676">
        <ele>241.91</ele>
        <time>2013-12-22T10:34:34Z</time>
      </trkpt>
      <trkpt lat="44.60518" lon="0.92654">
        <ele>239.99</ele>
        <time>2013-12-22T10:34:39Z</time>
      </trkpt>
      <trkpt lat="44.60528" lon="0.92643">
        <ele>239.51</ele>
        <time>2013-12-22T10:34:41Z</time>
      </trkpt>
      <trkpt lat="44.60556" lon="0.92636">
        <ele>238.06</ele>
        <time>2013-12-22T10:34:49Z</time>
      </trkpt>
      <trkpt lat="44.60559" lon="0.92639">
        <ele>237.58</ele>
        <time>2013-12-22T10:34:50Z</time>
      </trkpt>
      <trkpt lat="44.60576" lon="0.92652">
        <ele>235.66</ele>
        <time>2013-12-22T10:34:54Z</time>
      </trkpt>
      <trkpt lat="44.60591" lon="0.92659">
        <ele>232.78</ele>
        <time>2013-12-22T10:34:57Z</time>
      </trkpt>
      <trkpt lat="44.60621" lon="0.92663">
        <ele>226.53</ele>
        <time>2013-12-22T10:35:02Z</time>
      </trkpt>
      <trkpt lat="44.60633" lon="0.92667">
        <ele>224.12</ele>
        <time>2013-12-22T10:35:04Z</time>
      </trkpt>
      <trkpt lat="44.6065" lon="0.92678">
        <ele>220.76</ele>
        <time>2013-12-22T10:35:07Z</time>
      </trkpt>
      <trkpt lat="44.60662" lon="0.92683">
        <ele>218.36</ele>
        <time>2013-12-22T10:35:09Z</time>
      </trkpt>
      <trkpt lat="44.60686" lon="0.92688">
        <ele>214.03</ele>
        <time>2013-12-22T10:35:13Z</time>
      </trkpt>
      <trkpt lat="44.6073" lon="0.92704">
        <ele>209.7</ele>
        <time>2013-12-22T10:35:20Z</time>
      </trkpt>
      <trkpt lat="44.6075" lon="0.92699">
        <ele>208.26</ele>
        <time>2013-12-22T10:35:24Z</time>
      </trkpt>
      <trkpt lat="44.6081" lon="0.92612">
        <ele>205.86</ele>
        <time>2013-12-22T10:35:38Z</time>
      </trkpt>
      <trkpt lat="44.60843" lon="0.9258">
        <ele>202.01</ele>
        <time>2013-12-22T10:35:43Z</time>
      </trkpt>
      <trkpt lat="44.60874" lon="0.92552">
        <ele>199.13</ele>
        <time>2013-12-22T10:35:48Z</time>
      </trkpt>
      <trkpt lat="44.60952" lon="0.92495">
        <ele>190</ele>
        <time>2013-12-22T10:35:59Z</time>
      </trkpt>
      <trkpt lat="44.60974" lon="0.92477">
        <ele>187.59</ele>
        <time>2013-12-22T10:36:02Z</time>
      </trkpt>
      <trkpt lat="44.61046" lon="0.92395">
        <ele>178.94</ele>
        <time>2013-12-22T10:36:13Z</time>
      </trkpt>
      <trkpt lat="44.61072" lon="0.92378">
        <ele>175.1</ele>
        <time>2013-12-22T10:36:17Z</time>
      </trkpt>
      <trkpt lat="44.6113" lon="0.92392">
        <ele>172.69</ele>
        <time>2013-12-22T10:36:27Z</time>
      </trkpt>
      <trkpt lat="44.61158" lon="0.92413">
        <ele>172.69</ele>
        <time>2013-12-22T10:36:33Z</time>
      </trkpt>
      <trkpt lat="44.61188" lon="0.92409">
        <ele>173.17</ele>
        <time>2013-12-22T10:36:40Z</time>
      </trkpt>
      <trkpt lat="44.61193" lon="0.92406">
        <ele>173.17</ele>
        <time>2013-12-22T10:36:41Z</time>
      </trkpt>
      <trkpt lat="44.6123" lon="0.92379">
        <ele>176.06</ele>
        <time>2013-12-22T10:36:50Z</time>
      </trkpt>
      <trkpt lat="44.61231" lon="0.92364">
        <ele>178.94</ele>
        <time>2013-12-22T10:37:00Z</time>
      </trkpt>
      <trkpt lat="44.6123" lon="0.92363">
        <ele>179.42</ele>
        <time>2013-12-22T10:37:21Z</time>
      </trkpt>
      <trkpt lat="44.61226" lon="0.92353">
        <ele>179.9</ele>
        <time>2013-12-22T10:37:34Z</time>
      </trkpt>
      <trkpt lat="44.61205" lon="0.92291">
        <ele>178.46</ele>
        <time>2013-12-22T10:37:48Z</time>
      </trkpt>
      <trkpt lat="44.61176" lon="0.92215">
        <ele>180.38</ele>
        <time>2013-12-22T10:38:03Z</time>
      </trkpt>
      <trkpt lat="44.61173" lon="0.92204">
        <ele>180.38</ele>
        <time>2013-12-22T10:38:05Z</time>
      </trkpt>
      <trkpt lat="44.61173" lon="0.92175">
        <ele>180.38</ele>
        <time>2013-12-22T10:38:10Z</time>
      </trkpt>
      <trkpt lat="44.61181" lon="0.92147">
        <ele>179.9</ele>
        <time>2013-12-22T10:38:15Z</time>
      </trkpt>
      <trkpt lat="44.61235" lon="0.92055">
        <ele>178.46</ele>
        <time>2013-12-22T10:38:32Z</time>
      </trkpt>
      <trkpt lat="44.61287" lon="0.91942">
        <ele>176.06</ele>
        <time>2013-12-22T10:38:48Z</time>
      </trkpt>
      <trkpt lat="44.6129" lon="0.91934">
        <ele>176.06</ele>
        <time>2013-12-22T10:38:49Z</time>
      </trkpt>
      <trkpt lat="44.61294" lon="0.91879">
        <ele>175.1</ele>
        <time>2013-12-22T10:38:55Z</time>
      </trkpt>
      <trkpt lat="44.61282" lon="0.917">
        <ele>173.66</ele>
        <time>2013-12-22T10:39:13Z</time>
      </trkpt>
      <trkpt lat="44.6128" lon="0.91654">
        <ele>172.69</ele>
        <time>2013-12-22T10:39:18Z</time>
      </trkpt>
      <trkpt lat="44.6125" lon="0.91539">
        <ele>171.25</ele>
        <time>2013-12-22T10:39:32Z</time>
      </trkpt>
      <trkpt lat="44.61207" lon="0.91452">
        <ele>169.81</ele>
        <time>2013-12-22T10:39:45Z</time>
      </trkpt>
      <trkpt lat="44.61185" lon="0.914">
        <ele>168.85</ele>
        <time>2013-12-22T10:39:52Z</time>
      </trkpt>
      <trkpt lat="44.61162" lon="0.91358">
        <ele>168.37</ele>
        <time>2013-12-22T10:39:58Z</time>
      </trkpt>
      <trkpt lat="44.61107" lon="0.91293">
        <ele>168.37</ele>
        <time>2013-12-22T10:40:11Z</time>
      </trkpt>
      <trkpt lat="44.61079" lon="0.91228">
        <ele>167.41</ele>
        <time>2013-12-22T10:40:21Z</time>
      </trkpt>
      <trkpt lat="44.61085" lon="0.91191">
        <ele>167.41</ele>
        <time>2013-12-22T10:40:28Z</time>
      </trkpt>
      <trkpt lat="44.61122" lon="0.91138">
        <ele>169.33</ele>
        <time>2013-12-22T10:40:43Z</time>
      </trkpt>
      <trkpt lat="44.61161" lon="0.91128">
        <ele>169.33</ele>
        <time>2013-12-22T10:40:55Z</time>
      </trkpt>
      <trkpt lat="44.61216" lon="0.9113">
        <ele>169.81</ele>
        <time>2013-12-22T10:41:11Z</time>
      </trkpt>
      <trkpt lat="44.61275" lon="0.91119">
        <ele>172.69</ele>
        <time>2013-12-22T10:41:27Z</time>
      </trkpt>
      <trkpt lat="44.61327" lon="0.91126">
        <ele>176.06</ele>
        <time>2013-12-22T10:41:41Z</time>
      </trkpt>
      <trkpt lat="44.6139" lon="0.91113">
        <ele>179.9</ele>
        <time>2013-12-22T10:41:56Z</time>
      </trkpt>
      <trkpt lat="44.61419" lon="0.91098">
        <ele>180.38</ele>
        <time>2013-12-22T10:42:04Z</time>
      </trkpt>
      <trkpt lat="44.61421" lon="0.91015">
        <ele>184.71</ele>
        <time>2013-12-22T10:42:22Z</time>
      </trkpt>
      <trkpt lat="44.61416" lon="0.90941">
        <ele>186.15</ele>
        <time>2013-12-22T10:42:38Z</time>
      </trkpt>
      <trkpt lat="44.61418" lon="0.90879">
        <ele>190</ele>
        <time>2013-12-22T10:42:53Z</time>
      </trkpt>
      <trkpt lat="44.61419" lon="0.90814">
        <ele>192.88</ele>
        <time>2013-12-22T10:43:08Z</time>
      </trkpt>
      <trkpt lat="44.61425" lon="0.90753">
        <ele>195.28</ele>
        <time>2013-12-22T10:43:23Z</time>
      </trkpt>
      <trkpt lat="44.61418" lon="0.90698">
        <ele>198.17</ele>
        <time>2013-12-22T10:43:38Z</time>
      </trkpt>
      <trkpt lat="44.61407" lon="0.9066">
        <ele>202.01</ele>
        <time>2013-12-22T10:43:52Z</time>
      </trkpt>
      <trkpt lat="44.61396" lon="0.9062">
        <ele>209.22</ele>
        <time>2013-12-22T10:44:07Z</time>
      </trkpt>
      <trkpt lat="44.61391" lon="0.90605">
        <ele>212.59</ele>
        <time>2013-12-22T10:44:13Z</time>
      </trkpt>
      <trkpt lat="44.61382" lon="0.90569">
        <ele>215.47</ele>
        <time>2013-12-22T10:44:28Z</time>
      </trkpt>
      <trkpt lat="44.61382" lon="0.90532">
        <ele>215.95</ele>
        <time>2013-12-22T10:44:41Z</time>
      </trkpt>
      <trkpt lat="44.6139" lon="0.90481">
        <ele>215.95</ele>
        <time>2013-12-22T10:44:56Z</time>
      </trkpt>
      <trkpt lat="44.61395" lon="0.90419">
        <ele>212.59</ele>
        <time>2013-12-22T10:45:06Z</time>
      </trkpt>
      <trkpt lat="44.61414" lon="0.90384">
        <ele>211.15</ele>
        <time>2013-12-22T10:45:13Z</time>
      </trkpt>
      <trkpt lat="44.61461" lon="0.90348">
        <ele>211.15</ele>
        <time>2013-12-22T10:45:27Z</time>
      </trkpt>
      <trkpt lat="44.61465" lon="0.90345">
        <ele>211.15</ele>
        <time>2013-12-22T10:45:28Z</time>
      </trkpt>
      <trkpt lat="44.61474" lon="0.9034">
        <ele>210.67</ele>
        <time>2013-12-22T10:45:30Z</time>
      </trkpt>
      <trkpt lat="44.61537" lon="0.90335">
        <ele>212.59</ele>
        <time>2013-12-22T10:45:46Z</time>
      </trkpt>
      <trkpt lat="44.61542" lon="0.90334">
        <ele>213.07</ele>
        <time>2013-12-22T10:45:48Z</time>
      </trkpt>
      <trkpt lat="44.61547" lon="0.90315">
        <ele>214.51</ele>
        <time>2013-12-22T10:45:55Z</time>
      </trkpt>
      <trkpt lat="44.6152" lon="0.90245">
        <ele>211.63</ele>
        <time>2013-12-22T10:46:05Z</time>
      </trkpt>
      <trkpt lat="44.61516" lon="0.90237">
        <ele>211.15</ele>
        <time>2013-12-22T10:46:06Z</time>
      </trkpt>
      <trkpt lat="44.61458" lon="0.90141">
        <ele>206.82</ele>
        <time>2013-12-22T10:46:20Z</time>
      </trkpt>
      <trkpt lat="44.61422" lon="0.90101">
        <ele>203.94</ele>
        <time>2013-12-22T10:46:28Z</time>
      </trkpt>
      <trkpt lat="44.61409" lon="0.90083">
        <ele>202.49</ele>
        <time>2013-12-22T10:46:37Z</time>
      </trkpt>
      <trkpt lat="44.61409" lon="0.90084">
        <ele>205.86</ele>
        <time>2013-12-22T10:46:59Z</time>
      </trkpt>
      <trkpt lat="44.61407" lon="0.90084">
        <ele>211.63</ele>
        <time>2013-12-22T10:47:19Z</time>
      </trkpt>
      <trkpt lat="44.61407" lon="0.90084">
        <ele>214.51</ele>
        <time>2013-12-22T10:47:52Z</time>
      </trkpt>
      <trkpt lat="44.61386" lon="0.90079">
        <ele>213.55</ele>
        <time>2013-12-22T10:48:05Z</time>
      </trkpt>
      <trkpt lat="44.61325" lon="0.90079">
        <ele>213.55</ele>
        <time>2013-12-22T10:48:16Z</time>
      </trkpt>
      <trkpt lat="44.61225" lon="0.90087">
        <ele>210.67</ele>
        <time>2013-12-22T10:48:31Z</time>
      </trkpt>
      <trkpt lat="44.611" lon="0.90096">
        <ele>199.61</ele>
        <time>2013-12-22T10:48:45Z</time>
      </trkpt>
      <trkpt lat="44.61043" lon="0.90087">
        <ele>193.36</ele>
        <time>2013-12-22T10:48:52Z</time>
      </trkpt>
      <trkpt lat="44.61032" lon="0.90063">
        <ele>189.52</ele>
        <time>2013-12-22T10:48:59Z</time>
      </trkpt>
      <trkpt lat="44.61036" lon="0.90055">
        <ele>188.56</ele>
        <time>2013-12-22T10:49:04Z</time>
      </trkpt>
      <trkpt lat="44.61055" lon="0.90031">
        <ele>188.56</ele>
        <time>2013-12-22T10:49:16Z</time>
      </trkpt>
      <trkpt lat="44.61079" lon="0.89992">
        <ele>189.52</ele>
        <time>2013-12-22T10:49:30Z</time>
      </trkpt>
      <trkpt lat="44.61072" lon="0.89937">
        <ele>194.32</ele>
        <time>2013-12-22T10:49:44Z</time>
      </trkpt>
      <trkpt lat="44.61069" lon="0.8989">
        <ele>194.8</ele>
        <time>2013-12-22T10:49:56Z</time>
      </trkpt>
      <trkpt lat="44.61061" lon="0.89796">
        <ele>196.25</ele>
        <time>2013-12-22T10:50:14Z</time>
      </trkpt>
      <trkpt lat="44.61057" lon="0.89769">
        <ele>196.73</ele>
        <time>2013-12-22T10:50:19Z</time>
      </trkpt>
      <trkpt lat="44.61069" lon="0.89741">
        <ele>195.77</ele>
        <time>2013-12-22T10:50:24Z</time>
      </trkpt>
      <trkpt lat="44.61103" lon="0.89675">
        <ele>194.8</ele>
        <time>2013-12-22T10:50:38Z</time>
      </trkpt>
      <trkpt lat="44.61123" lon="0.89617">
        <ele>194.32</ele>
        <time>2013-12-22T10:50:47Z</time>
      </trkpt>
      <trkpt lat="44.61141" lon="0.89594">
        <ele>194.32</ele>
        <time>2013-12-22T10:50:52Z</time>
      </trkpt>
      <trkpt lat="44.61173" lon="0.89576">
        <ele>196.25</ele>
        <time>2013-12-22T10:50:59Z</time>
      </trkpt>
      <trkpt lat="44.61194" lon="0.89551">
        <ele>197.21</ele>
        <time>2013-12-22T10:51:05Z</time>
      </trkpt>
      <trkpt lat="44.61199" lon="0.89541">
        <ele>198.17</ele>
        <time>2013-12-22T10:51:07Z</time>
      </trkpt>
      <trkpt lat="44.61248" lon="0.89485">
        <ele>202.49</ele>
        <time>2013-12-22T10:51:22Z</time>
      </trkpt>
      <trkpt lat="44.61277" lon="0.89448">
        <ele>203.94</ele>
        <time>2013-12-22T10:51:34Z</time>
      </trkpt>
      <trkpt lat="44.6132" lon="0.89407">
        <ele>200.57</ele>
        <time>2013-12-22T10:51:45Z</time>
      </trkpt>
      <trkpt lat="44.61402" lon="0.89309">
        <ele>189.04</ele>
        <time>2013-12-22T10:51:58Z</time>
      </trkpt>
      <trkpt lat="44.615" lon="0.89208">
        <ele>178.94</ele>
        <time>2013-12-22T10:52:12Z</time>
      </trkpt>
      <trkpt lat="44.61549" lon="0.89168">
        <ele>178.94</ele>
        <time>2013-12-22T10:52:20Z</time>
      </trkpt>
      <trkpt lat="44.61555" lon="0.89139">
        <ele>179.9</ele>
        <time>2013-12-22T10:52:25Z</time>
      </trkpt>
      <trkpt lat="44.6155" lon="0.89109">
        <ele>180.38</ele>
        <time>2013-12-22T10:52:30Z</time>
      </trkpt>
      <trkpt lat="44.61528" lon="0.89037">
        <ele>181.83</ele>
        <time>2013-12-22T10:52:42Z</time>
      </trkpt>
      <trkpt lat="44.61523" lon="0.89026">
        <ele>182.31</ele>
        <time>2013-12-22T10:52:44Z</time>
      </trkpt>
      <trkpt lat="44.61506" lon="0.89005">
        <ele>181.83</ele>
        <time>2013-12-22T10:52:48Z</time>
      </trkpt>
      <trkpt lat="44.61454" lon="0.88957">
        <ele>181.83</ele>
        <time>2013-12-22T10:52:58Z</time>
      </trkpt>
      <trkpt lat="44.61374" lon="0.88892">
        <ele>180.87</ele>
        <time>2013-12-22T10:53:12Z</time>
      </trkpt>
      <trkpt lat="44.61293" lon="0.88815">
        <ele>178.46</ele>
        <time>2013-12-22T10:53:26Z</time>
      </trkpt>
      <trkpt lat="44.61243" lon="0.88778">
        <ele>179.9</ele>
        <time>2013-12-22T10:53:35Z</time>
      </trkpt>
      <trkpt lat="44.61186" lon="0.8872">
        <ele>177.98</ele>
        <time>2013-12-22T10:53:48Z</time>
      </trkpt>
      <trkpt lat="44.61168" lon="0.88703">
        <ele>177.5</ele>
        <time>2013-12-22T10:53:52Z</time>
      </trkpt>
      <trkpt lat="44.61137" lon="0.88677">
        <ele>177.02</ele>
        <time>2013-12-22T10:53:59Z</time>
      </trkpt>
      <trkpt lat="44.61129" lon="0.88671">
        <ele>177.5</ele>
        <time>2013-12-22T10:54:01Z</time>
      </trkpt>
      <trkpt lat="44.61074" lon="0.8861">
        <ele>173.66</ele>
        <time>2013-12-22T10:54:14Z</time>
      </trkpt>
      <trkpt lat="44.61054" lon="0.8859">
        <ele>176.06</ele>
        <time>2013-12-22T10:54:20Z</time>
      </trkpt>
      <trkpt lat="44.61043" lon="0.88601">
        <ele>177.02</ele>
        <time>2013-12-22T10:54:25Z</time>
      </trkpt>
      <trkpt lat="44.61042" lon="0.88613">
        <ele>177.5</ele>
        <time>2013-12-22T10:54:27Z</time>
      </trkpt>
      <trkpt lat="44.61041" lon="0.88639">
        <ele>177.02</ele>
        <time>2013-12-22T10:54:31Z</time>
      </trkpt>
      <trkpt lat="44.6104" lon="0.8869">
        <ele>175.1</ele>
        <time>2013-12-22T10:54:36Z</time>
      </trkpt>
      <trkpt lat="44.6104" lon="0.88712">
        <ele>173.66</ele>
        <time>2013-12-22T10:54:38Z</time>
      </trkpt>
      <trkpt lat="44.61012" lon="0.88752">
        <ele>170.77</ele>
        <time>2013-12-22T10:54:44Z</time>
      </trkpt>
      <trkpt lat="44.60986" lon="0.88774">
        <ele>170.29</ele>
        <time>2013-12-22T10:54:48Z</time>
      </trkpt>
      <trkpt lat="44.60961" lon="0.88791">
        <ele>170.77</ele>
        <time>2013-12-22T10:54:52Z</time>
      </trkpt>
      <trkpt lat="44.60932" lon="0.88817">
        <ele>171.73</ele>
        <time>2013-12-22T10:54:57Z</time>
      </trkpt>
      <trkpt lat="44.60916" lon="0.88833">
        <ele>172.69</ele>
        <time>2013-12-22T10:55:00Z</time>
      </trkpt>
      <trkpt lat="44.60859" lon="0.8887">
        <ele>176.54</ele>
        <time>2013-12-22T10:55:11Z</time>
      </trkpt>
      <trkpt lat="44.60822" lon="0.889">
        <ele>177.5</ele>
        <time>2013-12-22T10:55:20Z</time>
      </trkpt>
      <trkpt lat="44.60812" lon="0.88907">
        <ele>177.5</ele>
        <time>2013-12-22T10:55:22Z</time>
      </trkpt>
      <trkpt lat="44.60786" lon="0.88924">
        <ele>177.5</ele>
        <time>2013-12-22T10:55:27Z</time>
      </trkpt>
      <trkpt lat="44.60752" lon="0.88944">
        <ele>176.06</ele>
        <time>2013-12-22T10:55:33Z</time>
      </trkpt>
      <trkpt lat="44.60741" lon="0.8895">
        <ele>175.58</ele>
        <time>2013-12-22T10:55:35Z</time>
      </trkpt>
      <trkpt lat="44.60701" lon="0.88971">
        <ele>177.02</ele>
        <time>2013-12-22T10:55:44Z</time>
      </trkpt>
      <trkpt lat="44.60662" lon="0.88982">
        <ele>177.98</ele>
        <time>2013-12-22T10:55:52Z</time>
      </trkpt>
      <trkpt lat="44.60627" lon="0.88993">
        <ele>176.54</ele>
        <time>2013-12-22T10:55:58Z</time>
      </trkpt>
      <trkpt lat="44.60535" lon="0.8903">
        <ele>175.1</ele>
        <time>2013-12-22T10:56:13Z</time>
      </trkpt>
      <trkpt lat="44.60518" lon="0.89042">
        <ele>174.62</ele>
        <time>2013-12-22T10:56:16Z</time>
      </trkpt>
      <trkpt lat="44.60497" lon="0.89058">
        <ele>175.1</ele>
        <time>2013-12-22T10:56:20Z</time>
      </trkpt>
      <trkpt lat="44.60486" lon="0.89064">
        <ele>175.58</ele>
        <time>2013-12-22T10:56:22Z</time>
      </trkpt>
      <trkpt lat="44.60463" lon="0.89073">
        <ele>175.1</ele>
        <time>2013-12-22T10:56:26Z</time>
      </trkpt>
      <trkpt lat="44.6039" lon="0.89125">
        <ele>170.77</ele>
        <time>2013-12-22T10:56:38Z</time>
      </trkpt>
      <trkpt lat="44.60332" lon="0.89162">
        <ele>166.45</ele>
        <time>2013-12-22T10:56:47Z</time>
      </trkpt>
      <trkpt lat="44.60296" lon="0.89216">
        <ele>164.04</ele>
        <time>2013-12-22T10:56:54Z</time>
      </trkpt>
      <trkpt lat="44.60271" lon="0.89232">
        <ele>164.04</ele>
        <time>2013-12-22T10:56:58Z</time>
      </trkpt>
      <trkpt lat="44.6022" lon="0.89253">
        <ele>165.96</ele>
        <time>2013-12-22T10:57:06Z</time>
      </trkpt>
      <trkpt lat="44.60191" lon="0.89274">
        <ele>164.04</ele>
        <time>2013-12-22T10:57:11Z</time>
      </trkpt>
      <trkpt lat="44.60155" lon="0.89304">
        <ele>162.6</ele>
        <time>2013-12-22T10:57:17Z</time>
      </trkpt>
      <trkpt lat="44.60135" lon="0.89308">
        <ele>163.56</ele>
        <time>2013-12-22T10:57:20Z</time>
      </trkpt>
      <trkpt lat="44.60124" lon="0.89341">
        <ele>165.48</ele>
        <time>2013-12-22T10:57:28Z</time>
      </trkpt>
      <trkpt lat="44.60109" lon="0.89417">
        <ele>164.52</ele>
        <time>2013-12-22T10:57:44Z</time>
      </trkpt>
      <trkpt lat="44.6008" lon="0.8948">
        <ele>165.96</ele>
        <time>2013-12-22T10:57:59Z</time>
      </trkpt>
      <trkpt lat="44.60074" lon="0.89495">
        <ele>166.45</ele>
        <time>2013-12-22T10:58:03Z</time>
      </trkpt>
      <trkpt lat="44.60059" lon="0.89494">
        <ele>166.93</ele>
        <time>2013-12-22T10:58:08Z</time>
      </trkpt>
      <trkpt lat="44.60049" lon="0.89483">
        <ele>168.85</ele>
        <time>2013-12-22T10:58:13Z</time>
      </trkpt>
      <trkpt lat="44.60046" lon="0.89483">
        <ele>168.37</ele>
        <time>2013-12-22T10:58:25Z</time>
      </trkpt>
    </trkseg>
  </trk>
</gpx>